<?xml version="1.0" encoding="UTF-8"?>
<gpx version="1.1" creator="https://www.www-youtrack-es.amenigma.com" xsi:schemaLocation="http://www.topografix.com/GPX/1/1 http://www.topografix.com/GPX/1/1/gpx.xsd http://www.garmin.com/xmlschemas/GpxExtensions/v3 http://www.garmin.com/xmlschemas/GpxExtensionsv3.xsd http://www.garmin.com/xmlschemas/TrackPointExtension/v1 http://www.garmin.com/xmlschemas/TrackPointExtensionv1.xsd" xmlns:gpxtpx="http://www.garmin.com/xmlschemas/TrackPointExtension/v1" xmlns:gpxx="http://www.garmin.com/xmlschemas/GpxExtensions/v3" xmlns:xsi="http://www.w3.org/2001/XMLSchema-instance">
  <metadata>
    <link href="https://www.www-youtrack-es.amenigma.com">
      <text>YouTrack.es</text>
    </link>
    <time>2026-09-01T23:18:05Z</time>
  </metadata>
  <trk>
    <src>https://www.www-youtrack-es.amenigma.com</src>
    <link href="https://www.www-youtrack-es.amenigma.com/ruta/32847-bee-alcarria-350-2022">
      <text>YouTrack.es</text>
    </link>
    <trkseg>
      <trkpt lat="40.704006403684616" lon="-3.418988781049848">
        <time>2022-05-04T19:00:58Z</time>
      </trkpt>
      <trkpt lat="40.754320789128542" lon="-3.409290332347155">
        <time>2022-05-04T19:01:09Z</time>
      </trkpt>
      <trkpt lat="40.792638827115297" lon="-3.34704908542335">
        <time>2022-05-04T19:01:15Z</time>
      </trkpt>
      <trkpt lat="40.797447860240936" lon="-3.333105454221368">
        <time>2022-05-04T19:01:18Z</time>
      </trkpt>
      <trkpt lat="40.781593322753906" lon="-3.305747509002686">
        <time>2022-05-04T19:01:22Z</time>
      </trkpt>
      <trkpt lat="40.786685580387712" lon="-3.271310878917575">
        <time>2022-05-04T19:01:30Z</time>
      </trkpt>
      <trkpt lat="40.781695749610662" lon="-3.232795866206288">
        <time>2022-05-04T19:01:37Z</time>
      </trkpt>
      <trkpt lat="40.764539167284966" lon="-3.184903347864747">
        <time>2022-05-04T19:02:04Z</time>
      </trkpt>
      <trkpt lat="40.766515368595719" lon="-3.17309282720089">
        <time>2022-05-04T19:02:07Z</time>
      </trkpt>
      <trkpt lat="40.78826867043972" lon="-3.17510012537241">
        <time>2022-05-04T19:02:15Z</time>
      </trkpt>
      <trkpt lat="40.80113472416997" lon="-3.171314438804984">
        <time>2022-05-04T19:02:46Z</time>
      </trkpt>
      <trkpt lat="40.814426997676492" lon="-3.163523962721229">
        <time>2022-05-04T19:02:49Z</time>
      </trkpt>
      <trkpt lat="40.825645923614502" lon="-3.15258264541626">
        <time>2022-05-04T19:03:25Z</time>
      </trkpt>
      <trkpt lat="40.829110499471426" lon="-3.150459006428719">
        <time>2022-05-04T19:03:27Z</time>
      </trkpt>
      <trkpt lat="40.830701636150479" lon="-3.143473025411367">
        <time>2022-05-04T19:04:00Z</time>
      </trkpt>
      <trkpt lat="40.830618739128113" lon="-3.13983921892941">
        <time>2022-05-04T19:04:02Z</time>
      </trkpt>
      <trkpt lat="40.833654748275876" lon="-3.127685710787773">
        <time>2022-05-04T19:04:06Z</time>
      </trkpt>
      <trkpt lat="40.831739902496338" lon="-3.112585544586182">
        <time>2022-05-04T19:04:09Z</time>
      </trkpt>
      <trkpt lat="40.815376164391637" lon="-3.094238312914968">
        <time>2022-05-04T19:04:15Z</time>
      </trkpt>
      <trkpt lat="40.797280557453632" lon="-3.081106636673212">
        <time>2022-05-04T19:04:22Z</time>
      </trkpt>
      <trkpt lat="40.796184539794922" lon="-3.079969882965088">
        <time>2022-05-04T19:04:25Z</time>
      </trkpt>
      <trkpt lat="40.7963852" lon="-3.0796520">
        <time>2022-05-04T19:08:00Z</time>
      </trkpt>
      <trkpt lat="40.7985557" lon="-3.0764601">
        <time>2022-05-04T19:08:03Z</time>
      </trkpt>
      <trkpt lat="40.8114172" lon="-3.0127047">
        <time>2022-05-04T19:08:30Z</time>
      </trkpt>
      <trkpt lat="40.8150854" lon="-2.9854633">
        <time>2022-05-04T19:08:35Z</time>
      </trkpt>
      <trkpt lat="40.8285427" lon="-2.9596353">
        <time>2022-05-04T19:08:43Z</time>
      </trkpt>
      <trkpt lat="40.8270371" lon="-2.9572722">
        <time>2022-05-04T19:08:45Z</time>
      </trkpt>
      <trkpt lat="40.8275546" lon="-2.9476056">
        <time>2022-05-04T19:08:50Z</time>
      </trkpt>
      <trkpt lat="40.8248139" lon="-2.9472403">
        <time>2022-05-04T19:08:52Z</time>
      </trkpt>
      <trkpt lat="40.8072138" lon="-2.9488420">
        <time>2022-05-04T19:08:55Z</time>
      </trkpt>
      <trkpt lat="40.8045745" lon="-2.9448295">
        <time>2022-05-04T19:09:02Z</time>
      </trkpt>
      <trkpt lat="40.7677531" lon="-2.8895116">
        <time>2022-05-04T19:09:06Z</time>
      </trkpt>
      <trkpt lat="40.7617664" lon="-2.8805852">
        <time>2022-05-04T19:09:11Z</time>
      </trkpt>
      <trkpt lat="40.7632685" lon="-2.8785038">
        <time>2022-05-04T19:09:19Z</time>
      </trkpt>
      <trkpt lat="40.7648291" lon="-2.8764678">
        <time>2022-05-04T19:09:21Z</time>
      </trkpt>
      <trkpt lat="40.7666159" lon="-2.8736259">
        <time>2022-05-04T19:09:23Z</time>
      </trkpt>
      <trkpt lat="40.7639551" lon="-2.8713799">
        <time>2022-05-04T19:09:25Z</time>
      </trkpt>
      <trkpt lat="40.7608652" lon="-2.8693199">
        <time>2022-05-04T19:09:37Z</time>
      </trkpt>
      <trkpt lat="40.7587263" lon="-2.8668585">
        <time>2022-05-04T19:09:41Z</time>
      </trkpt>
      <trkpt lat="40.7600644" lon="-2.8448314">
        <time>2022-05-04T19:09:44Z</time>
      </trkpt>
      <trkpt lat="40.7850051" lon="-2.8182936">
        <time>2022-05-04T19:09:49Z</time>
      </trkpt>
      <trkpt lat="40.8029008" lon="-2.7863002">
        <time>2022-05-04T19:09:58Z</time>
      </trkpt>
      <trkpt lat="40.8064434" lon="-2.7715413">
        <time>2022-05-04T19:10:02Z</time>
      </trkpt>
      <trkpt lat="40.8227330" lon="-2.7028893">
        <time>2022-05-04T19:10:08Z</time>
      </trkpt>
      <trkpt lat="40.8065701" lon="-2.6714802">
        <time>2022-05-04T19:10:25Z</time>
      </trkpt>
      <trkpt lat="40.7918658" lon="-2.6419339">
        <time>2022-05-04T19:10:28Z</time>
      </trkpt>
      <trkpt lat="40.7868290" lon="-2.6313543">
        <time>2022-05-15T07:20:46Z</time>
      </trkpt>
      <trkpt lat="40.7853055" lon="-2.6283073">
        <time>2022-05-15T07:20:34Z</time>
      </trkpt>
      <trkpt lat="40.7830954" lon="-2.6247454">
        <time>2022-05-04T19:10:34Z</time>
      </trkpt>
      <trkpt lat="40.7813633" lon="-2.6219368">
        <time>2022-05-04T19:10:37Z</time>
      </trkpt>
      <trkpt lat="40.7794958" lon="-2.6179141">
        <time>2022-05-04T19:10:41Z</time>
      </trkpt>
      <trkpt lat="40.7809496" lon="-2.5289369">
        <time>2022-05-04T19:17:41Z</time>
      </trkpt>
      <trkpt lat="40.8355406" lon="-2.4543700">
        <time>2022-05-04T19:17:49Z</time>
      </trkpt>
      <trkpt lat="40.8335104" lon="-2.4202382">
        <time>2022-05-04T19:18:02Z</time>
      </trkpt>
      <trkpt lat="40.7963893" lon="-3.0796568"/>
      <trkpt lat="40.7965493" lon="-3.0794120"/>
      <trkpt lat="40.7965493" lon="-3.0794120"/>
      <trkpt lat="40.7965493" lon="-3.0794120"/>
      <trkpt lat="40.7965493" lon="-3.0794120"/>
      <trkpt lat="40.7965493" lon="-3.0794120"/>
      <trkpt lat="40.7968497" lon="-3.0789614"/>
      <trkpt lat="40.7972574" lon="-3.0783820"/>
      <trkpt lat="40.7976437" lon="-3.0777812"/>
      <trkpt lat="40.7976437" lon="-3.0777812"/>
      <trkpt lat="40.7978797" lon="-3.0774593"/>
      <trkpt lat="40.7980299" lon="-3.0772233"/>
      <trkpt lat="40.7980299" lon="-3.0772233"/>
      <trkpt lat="40.7983303" lon="-3.0767941"/>
      <trkpt lat="40.7983303" lon="-3.0767941"/>
      <trkpt lat="40.7983303" lon="-3.0767941"/>
      <trkpt lat="40.7983303" lon="-3.0767941"/>
      <trkpt lat="40.7985556" lon="-3.0764604"/>
      <trkpt lat="40.7985556" lon="-3.0764604"/>
      <trkpt lat="40.8018923" lon="-3.0715156"/>
      <trkpt lat="40.8018923" lon="-3.0715156"/>
      <trkpt lat="40.8018923" lon="-3.0715156"/>
      <trkpt lat="40.8018923" lon="-3.0715156"/>
      <trkpt lat="40.8018923" lon="-3.0715156"/>
      <trkpt lat="40.8027935" lon="-3.0701637"/>
      <trkpt lat="40.8027935" lon="-3.0701637"/>
      <trkpt lat="40.8030939" lon="-3.0697131"/>
      <trkpt lat="40.8030939" lon="-3.0697131"/>
      <trkpt lat="40.8036947" lon="-3.0688119"/>
      <trkpt lat="40.8036947" lon="-3.0688119"/>
      <trkpt lat="40.8047032" lon="-3.0673957"/>
      <trkpt lat="40.8050251" lon="-3.0670094"/>
      <trkpt lat="40.8051109" lon="-3.0669022"/>
      <trkpt lat="40.8051109" lon="-3.0669022"/>
      <trkpt lat="40.8051968" lon="-3.0663443"/>
      <trkpt lat="40.8051968" lon="-3.0663443"/>
      <trkpt lat="40.8052397" lon="-3.0658293"/>
      <trkpt lat="40.8052397" lon="-3.0658293"/>
      <trkpt lat="40.8052182" lon="-3.0649924"/>
      <trkpt lat="40.8051538" lon="-3.0640054"/>
      <trkpt lat="40.8048105" lon="-3.0617309"/>
      <trkpt lat="40.8046603" lon="-3.0600142"/>
      <trkpt lat="40.8046603" lon="-3.0590487"/>
      <trkpt lat="40.8047891" lon="-3.0579758"/>
      <trkpt lat="40.8050466" lon="-3.0561304"/>
      <trkpt lat="40.8053899" lon="-3.0546284"/>
      <trkpt lat="40.8055186" lon="-3.0533838"/>
      <trkpt lat="40.8054328" lon="-3.0516028"/>
      <trkpt lat="40.8054972" lon="-3.0502081"/>
      <trkpt lat="40.8054972" lon="-3.0502081"/>
      <trkpt lat="40.8054972" lon="-3.0502081"/>
      <trkpt lat="40.8055401" lon="-3.0497575"/>
      <trkpt lat="40.8055401" lon="-3.0497575"/>
      <trkpt lat="40.8055615" lon="-3.0489850"/>
      <trkpt lat="40.8055615" lon="-3.0489850"/>
      <trkpt lat="40.8057117" lon="-3.0481052"/>
      <trkpt lat="40.8057332" lon="-3.0479550"/>
      <trkpt lat="40.8057332" lon="-3.0479550"/>
      <trkpt lat="40.8057332" lon="-3.0475259"/>
      <trkpt lat="40.8055615" lon="-3.0461955"/>
      <trkpt lat="40.8056474" lon="-3.0458093"/>
      <trkpt lat="40.8059263" lon="-3.0450153"/>
      <trkpt lat="40.8059263" lon="-3.0450153"/>
      <trkpt lat="40.8069777" lon="-3.0420113"/>
      <trkpt lat="40.8071709" lon="-3.0412388"/>
      <trkpt lat="40.8072352" lon="-3.0397797"/>
      <trkpt lat="40.8072782" lon="-3.0394149"/>
      <trkpt lat="40.8074069" lon="-3.0390286"/>
      <trkpt lat="40.8079648" lon="-3.0373335"/>
      <trkpt lat="40.8082008" lon="-3.0365825"/>
      <trkpt lat="40.8084154" lon="-3.0361533"/>
      <trkpt lat="40.8088017" lon="-3.0356169"/>
      <trkpt lat="40.8093596" lon="-3.0346298"/>
      <trkpt lat="40.8105183" lon="-3.0319905"/>
      <trkpt lat="40.8107328" lon="-3.0312395"/>
      <trkpt lat="40.8110332" lon="-3.0298662"/>
      <trkpt lat="40.8114409" lon="-3.0274630"/>
      <trkpt lat="40.8116341" lon="-3.0241156"/>
      <trkpt lat="40.8115911" lon="-3.0231929"/>
      <trkpt lat="40.8115697" lon="-3.0224419"/>
      <trkpt lat="40.8116555" lon="-3.0219269"/>
      <trkpt lat="40.8117414" lon="-3.0215406"/>
      <trkpt lat="40.8118486" lon="-3.0209827"/>
      <trkpt lat="40.8121276" lon="-3.0193520"/>
      <trkpt lat="40.8121276" lon="-3.0193520"/>
      <trkpt lat="40.8121705" lon="-3.0187082"/>
      <trkpt lat="40.8121705" lon="-3.0182147"/>
      <trkpt lat="40.8116341" lon="-3.0139661"/>
      <trkpt lat="40.8116341" lon="-3.0139661"/>
      <trkpt lat="40.8115482" lon="-3.0133224"/>
      <trkpt lat="40.8114172" lon="-3.0127048"/>
      <trkpt lat="40.8114172" lon="-3.0127048"/>
      <trkpt lat="40.8113980" lon="-3.0126143"/>
      <trkpt lat="40.8113980" lon="-3.0126143"/>
      <trkpt lat="40.8113980" lon="-3.0126143"/>
      <trkpt lat="40.8113980" lon="-3.0126143"/>
      <trkpt lat="40.8113980" lon="-3.0126143"/>
      <trkpt lat="40.8112264" lon="-3.0119491"/>
      <trkpt lat="40.8109474" lon="-3.0107474"/>
      <trkpt lat="40.8108401" lon="-3.0096960"/>
      <trkpt lat="40.8107972" lon="-3.0091166"/>
      <trkpt lat="40.8107972" lon="-3.0091166"/>
      <trkpt lat="40.8105612" lon="-3.0063486"/>
      <trkpt lat="40.8102822" lon="-3.0045891"/>
      <trkpt lat="40.8102822" lon="-3.0045891"/>
      <trkpt lat="40.8102179" lon="-3.0041385"/>
      <trkpt lat="40.8100891" lon="-3.0031514"/>
      <trkpt lat="40.8100891" lon="-3.0025935"/>
      <trkpt lat="40.8101749" lon="-3.0022287"/>
      <trkpt lat="40.8105612" lon="-3.0014992"/>
      <trkpt lat="40.8105612" lon="-3.0014992"/>
      <trkpt lat="40.8113980" lon="-2.9999971"/>
      <trkpt lat="40.8113980" lon="-2.9999971"/>
      <trkpt lat="40.8113980" lon="-2.9999971"/>
      <trkpt lat="40.8121490" lon="-2.9987097"/>
      <trkpt lat="40.8128572" lon="-2.9973149"/>
      <trkpt lat="40.8131361" lon="-2.9966283"/>
      <trkpt lat="40.8134580" lon="-2.9954052"/>
      <trkpt lat="40.8139944" lon="-2.9930019"/>
      <trkpt lat="40.8141875" lon="-2.9918647"/>
      <trkpt lat="40.8143592" lon="-2.9912639"/>
      <trkpt lat="40.8143592" lon="-2.9912639"/>
      <trkpt lat="40.8145738" lon="-2.9901481"/>
      <trkpt lat="40.8148956" lon="-2.9869080"/>
      <trkpt lat="40.8150458" lon="-2.9856849"/>
      <trkpt lat="40.8150458" lon="-2.9856849"/>
      <trkpt lat="40.8150458" lon="-2.9856849"/>
      <trkpt lat="40.8150458" lon="-2.9856849"/>
      <trkpt lat="40.8150853" lon="-2.9854635"/>
      <trkpt lat="40.8150853" lon="-2.9854635"/>
      <trkpt lat="40.8151531" lon="-2.9850841"/>
      <trkpt lat="40.8151531" lon="-2.9850841"/>
      <trkpt lat="40.8154321" lon="-2.9843974"/>
      <trkpt lat="40.8154321" lon="-2.9843974"/>
      <trkpt lat="40.8177924" lon="-2.9789686"/>
      <trkpt lat="40.8182001" lon="-2.9779172"/>
      <trkpt lat="40.8185863" lon="-2.9769301"/>
      <trkpt lat="40.8189082" lon="-2.9764152"/>
      <trkpt lat="40.8192730" lon="-2.9759002"/>
      <trkpt lat="40.8194661" lon="-2.9756427"/>
      <trkpt lat="40.8194661" lon="-2.9756427"/>
      <trkpt lat="40.8204746" lon="-2.9741406"/>
      <trkpt lat="40.8212471" lon="-2.9727030"/>
      <trkpt lat="40.8219981" lon="-2.9711580"/>
      <trkpt lat="40.8224273" lon="-2.9704499"/>
      <trkpt lat="40.8236718" lon="-2.9686904"/>
      <trkpt lat="40.8239937" lon="-2.9681754"/>
      <trkpt lat="40.8242726" lon="-2.9675317"/>
      <trkpt lat="40.8250237" lon="-2.9657722"/>
      <trkpt lat="40.8257532" lon="-2.9646778"/>
      <trkpt lat="40.8262897" lon="-2.9639268"/>
      <trkpt lat="40.8270407" lon="-2.9626822"/>
      <trkpt lat="40.8270407" lon="-2.9626822"/>
      <trkpt lat="40.8277059" lon="-2.9616737"/>
      <trkpt lat="40.8277059" lon="-2.9616737"/>
      <trkpt lat="40.8279204" lon="-2.9613519"/>
      <trkpt lat="40.8279204" lon="-2.9613519"/>
      <trkpt lat="40.8282852" lon="-2.9608154"/>
      <trkpt lat="40.8282852" lon="-2.9608154"/>
      <trkpt lat="40.8284354" lon="-2.9602146"/>
      <trkpt lat="40.8284998" lon="-2.9599357"/>
      <trkpt lat="40.8284998" lon="-2.9599357"/>
      <trkpt lat="40.8284998" lon="-2.9599357"/>
      <trkpt lat="40.8284998" lon="-2.9599357"/>
      <trkpt lat="40.8285333" lon="-2.9596337"/>
      <trkpt lat="40.8285333" lon="-2.9596337"/>
      <trkpt lat="40.8285427" lon="-2.9595494"/>
      <trkpt lat="40.8285427" lon="-2.9595494"/>
      <trkpt lat="40.8285213" lon="-2.9593349"/>
      <trkpt lat="40.8285213" lon="-2.9593349"/>
      <trkpt lat="40.8284354" lon="-2.9591632"/>
      <trkpt lat="40.8284354" lon="-2.9591632"/>
      <trkpt lat="40.8280706" lon="-2.9587984"/>
      <trkpt lat="40.8277702" lon="-2.9583478"/>
      <trkpt lat="40.8277702" lon="-2.9583478"/>
      <trkpt lat="40.8272552" lon="-2.9575753"/>
      <trkpt lat="40.8272552" lon="-2.9575753"/>
      <trkpt lat="40.8272552" lon="-2.9575753"/>
      <trkpt lat="40.8272552" lon="-2.9575753"/>
      <trkpt lat="40.8270370" lon="-2.9572721"/>
      <trkpt lat="40.8270370" lon="-2.9572721"/>
      <trkpt lat="40.8268690" lon="-2.9570389"/>
      <trkpt lat="40.8268690" lon="-2.9570389"/>
      <trkpt lat="40.8268690" lon="-2.9570389"/>
      <trkpt lat="40.8268690" lon="-2.9570389"/>
      <trkpt lat="40.8268690" lon="-2.9570389"/>
      <trkpt lat="40.8264399" lon="-2.9565024"/>
      <trkpt lat="40.8264399" lon="-2.9565024"/>
      <trkpt lat="40.8263755" lon="-2.9562879"/>
      <trkpt lat="40.8264184" lon="-2.9559016"/>
      <trkpt lat="40.8264184" lon="-2.9559016"/>
      <trkpt lat="40.8264184" lon="-2.9559016"/>
      <trkpt lat="40.8265257" lon="-2.9552794"/>
      <trkpt lat="40.8268261" lon="-2.9537559"/>
      <trkpt lat="40.8273411" lon="-2.9523182"/>
      <trkpt lat="40.8274055" lon="-2.9518890"/>
      <trkpt lat="40.8273625" lon="-2.9509878"/>
      <trkpt lat="40.8273625" lon="-2.9503870"/>
      <trkpt lat="40.8273840" lon="-2.9495502"/>
      <trkpt lat="40.8272338" lon="-2.9487562"/>
      <trkpt lat="40.8275127" lon="-2.9478979"/>
      <trkpt lat="40.8275127" lon="-2.9478979"/>
      <trkpt lat="40.8275127" lon="-2.9478979"/>
      <trkpt lat="40.8275127" lon="-2.9478979"/>
      <trkpt lat="40.8275546" lon="-2.9476055"/>
      <trkpt lat="40.8275546" lon="-2.9476055"/>
      <trkpt lat="40.8275771" lon="-2.9474473"/>
      <trkpt lat="40.8275771" lon="-2.9474473"/>
      <trkpt lat="40.8277917" lon="-2.9469752"/>
      <trkpt lat="40.8282423" lon="-2.9462457"/>
      <trkpt lat="40.8287144" lon="-2.9457951"/>
      <trkpt lat="40.8290362" lon="-2.9451084"/>
      <trkpt lat="40.8290362" lon="-2.9451084"/>
      <trkpt lat="40.8292723" lon="-2.9445291"/>
      <trkpt lat="40.8292723" lon="-2.9445291"/>
      <trkpt lat="40.8302808" lon="-2.9422545"/>
      <trkpt lat="40.8306885" lon="-2.9416966"/>
      <trkpt lat="40.8306885" lon="-2.9416966"/>
      <trkpt lat="40.8307958" lon="-2.9415679"/>
      <trkpt lat="40.8309674" lon="-2.9413748"/>
      <trkpt lat="40.8309674" lon="-2.9413748"/>
      <trkpt lat="40.8307528" lon="-2.9414392"/>
      <trkpt lat="40.8303881" lon="-2.9417396"/>
      <trkpt lat="40.8303881" lon="-2.9417396"/>
      <trkpt lat="40.8300018" lon="-2.9421258"/>
      <trkpt lat="40.8295941" lon="-2.9427266"/>
      <trkpt lat="40.8292294" lon="-2.9431558"/>
      <trkpt lat="40.8292294" lon="-2.9431558"/>
      <trkpt lat="40.8284783" lon="-2.9439926"/>
      <trkpt lat="40.8281565" lon="-2.9441214"/>
      <trkpt lat="40.8272982" lon="-2.9442501"/>
      <trkpt lat="40.8269334" lon="-2.9443789"/>
      <trkpt lat="40.8256245" lon="-2.9453659"/>
      <trkpt lat="40.8256245" lon="-2.9453659"/>
      <trkpt lat="40.8252382" lon="-2.9456663"/>
      <trkpt lat="40.8249378" lon="-2.9461384"/>
      <trkpt lat="40.8248139" lon="-2.9472404"/>
      <trkpt lat="40.8248139" lon="-2.9472404"/>
      <trkpt lat="40.8247447" lon="-2.9478550"/>
      <trkpt lat="40.8247447" lon="-2.9478550"/>
      <trkpt lat="40.8244872" lon="-2.9486918"/>
      <trkpt lat="40.8244872" lon="-2.9486918"/>
      <trkpt lat="40.8244228" lon="-2.9493785"/>
      <trkpt lat="40.8244443" lon="-2.9498935"/>
      <trkpt lat="40.8243799" lon="-2.9502368"/>
      <trkpt lat="40.8239722" lon="-2.9513311"/>
      <trkpt lat="40.8235002" lon="-2.9520392"/>
      <trkpt lat="40.8229852" lon="-2.9535842"/>
      <trkpt lat="40.8226633" lon="-2.9542279"/>
      <trkpt lat="40.8213544" lon="-2.9561591"/>
      <trkpt lat="40.8208823" lon="-2.9569960"/>
      <trkpt lat="40.8199811" lon="-2.9581976"/>
      <trkpt lat="40.8189082" lon="-2.9594851"/>
      <trkpt lat="40.8183932" lon="-2.9602361"/>
      <trkpt lat="40.8178568" lon="-2.9607511"/>
      <trkpt lat="40.8173847" lon="-2.9613090"/>
      <trkpt lat="40.8166981" lon="-2.9617810"/>
      <trkpt lat="40.8166981" lon="-2.9617810"/>
      <trkpt lat="40.8162904" lon="-2.9619527"/>
      <trkpt lat="40.8161187" lon="-2.9619741"/>
      <trkpt lat="40.8158612" lon="-2.9618883"/>
      <trkpt lat="40.8158612" lon="-2.9618883"/>
      <trkpt lat="40.8156252" lon="-2.9616308"/>
      <trkpt lat="40.8151102" lon="-2.9608798"/>
      <trkpt lat="40.8151102" lon="-2.9608798"/>
      <trkpt lat="40.8147240" lon="-2.9602790"/>
      <trkpt lat="40.8143163" lon="-2.9596567"/>
      <trkpt lat="40.8134365" lon="-2.9583049"/>
      <trkpt lat="40.8131790" lon="-2.9579186"/>
      <trkpt lat="40.8111405" lon="-2.9548287"/>
      <trkpt lat="40.8100891" lon="-2.9532194"/>
      <trkpt lat="40.8095741" lon="-2.9524469"/>
      <trkpt lat="40.8090806" lon="-2.9516959"/>
      <trkpt lat="40.8072567" lon="-2.9489279"/>
      <trkpt lat="40.8072138" lon="-2.9488420"/>
      <trkpt lat="40.8072138" lon="-2.9488420"/>
      <trkpt lat="40.8072138" lon="-2.9488420"/>
      <trkpt lat="40.8072138" lon="-2.9488420"/>
      <trkpt lat="40.8072138" lon="-2.9488420"/>
      <trkpt lat="40.8072138" lon="-2.9488420"/>
      <trkpt lat="40.8072138" lon="-2.9488420"/>
      <trkpt lat="40.8072138" lon="-2.9488420"/>
      <trkpt lat="40.8072138" lon="-2.9488420"/>
      <trkpt lat="40.8072138" lon="-2.9488420"/>
      <trkpt lat="40.8072138" lon="-2.9488420"/>
      <trkpt lat="40.8067632" lon="-2.9481769"/>
      <trkpt lat="40.8067632" lon="-2.9481769"/>
      <trkpt lat="40.8066559" lon="-2.9480052"/>
      <trkpt lat="40.8065701" lon="-2.9478979"/>
      <trkpt lat="40.8065271" lon="-2.9478121"/>
      <trkpt lat="40.8065271" lon="-2.9478121"/>
      <trkpt lat="40.8063984" lon="-2.9478765"/>
      <trkpt lat="40.8062911" lon="-2.9478335"/>
      <trkpt lat="40.8061838" lon="-2.9476619"/>
      <trkpt lat="40.8061838" lon="-2.9475117"/>
      <trkpt lat="40.8062482" lon="-2.9474044"/>
      <trkpt lat="40.8062482" lon="-2.9474044"/>
      <trkpt lat="40.8060122" lon="-2.9470396"/>
      <trkpt lat="40.8059263" lon="-2.9469109"/>
      <trkpt lat="40.8057332" lon="-2.9466105"/>
      <trkpt lat="40.8057332" lon="-2.9466105"/>
      <trkpt lat="40.8055615" lon="-2.9466748"/>
      <trkpt lat="40.8054543" lon="-2.9465461"/>
      <trkpt lat="40.8054113" lon="-2.9463530"/>
      <trkpt lat="40.8054757" lon="-2.9462242"/>
      <trkpt lat="40.8054757" lon="-2.9462242"/>
      <trkpt lat="40.8051538" lon="-2.9457307"/>
      <trkpt lat="40.8051538" lon="-2.9457307"/>
      <trkpt lat="40.8045745" lon="-2.9448295"/>
      <trkpt lat="40.8045745" lon="-2.9448295"/>
      <trkpt lat="40.8045745" lon="-2.9448295"/>
      <trkpt lat="40.8045745" lon="-2.9448295"/>
      <trkpt lat="40.8045745" lon="-2.9448295"/>
      <trkpt lat="40.8045745" lon="-2.9448295"/>
      <trkpt lat="40.8045745" lon="-2.9448295"/>
      <trkpt lat="40.8045745" lon="-2.9448295"/>
      <trkpt lat="40.8045745" lon="-2.9448295"/>
      <trkpt lat="40.8045745" lon="-2.9448295"/>
      <trkpt lat="40.8045745" lon="-2.9448295"/>
      <trkpt lat="40.8035231" lon="-2.9432416"/>
      <trkpt lat="40.8035231" lon="-2.9432416"/>
      <trkpt lat="40.8021498" lon="-2.9411387"/>
      <trkpt lat="40.8007979" lon="-2.9391003"/>
      <trkpt lat="40.8001971" lon="-2.9382205"/>
      <trkpt lat="40.7996178" lon="-2.9373193"/>
      <trkpt lat="40.7992744" lon="-2.9368043"/>
      <trkpt lat="40.7985234" lon="-2.9356456"/>
      <trkpt lat="40.7985234" lon="-2.9356456"/>
      <trkpt lat="40.7980514" lon="-2.9349160"/>
      <trkpt lat="40.7975578" lon="-2.9341650"/>
      <trkpt lat="40.7967424" lon="-2.9328990"/>
      <trkpt lat="40.7965064" lon="-2.9325342"/>
      <trkpt lat="40.7963347" lon="-2.9322982"/>
      <trkpt lat="40.7962704" lon="-2.9322124"/>
      <trkpt lat="40.7961202" lon="-2.9319549"/>
      <trkpt lat="40.7952404" lon="-2.9306030"/>
      <trkpt lat="40.7949615" lon="-2.9301953"/>
      <trkpt lat="40.7947254" lon="-2.9298091"/>
      <trkpt lat="40.7947254" lon="-2.9298091"/>
      <trkpt lat="40.7938457" lon="-2.9284787"/>
      <trkpt lat="40.7938457" lon="-2.9284787"/>
      <trkpt lat="40.7926011" lon="-2.9266119"/>
      <trkpt lat="40.7912493" lon="-2.9245520"/>
      <trkpt lat="40.7901764" lon="-2.9229426"/>
      <trkpt lat="40.7891464" lon="-2.9213762"/>
      <trkpt lat="40.7890391" lon="-2.9212046"/>
      <trkpt lat="40.7879877" lon="-2.9196167"/>
      <trkpt lat="40.7864642" lon="-2.9173207"/>
      <trkpt lat="40.7864642" lon="-2.9173207"/>
      <trkpt lat="40.7853913" lon="-2.9157329"/>
      <trkpt lat="40.7851982" lon="-2.9154539"/>
      <trkpt lat="40.7845330" lon="-2.9144669"/>
      <trkpt lat="40.7840180" lon="-2.9136944"/>
      <trkpt lat="40.7836103" lon="-2.9130721"/>
      <trkpt lat="40.7833314" lon="-2.9126644"/>
      <trkpt lat="40.7830310" lon="-2.9122138"/>
      <trkpt lat="40.7823873" lon="-2.9112697"/>
      <trkpt lat="40.7822156" lon="-2.9110122"/>
      <trkpt lat="40.7821298" lon="-2.9108620"/>
      <trkpt lat="40.7813358" lon="-2.9096603"/>
      <trkpt lat="40.7810998" lon="-2.9093170"/>
      <trkpt lat="40.7803273" lon="-2.9081583"/>
      <trkpt lat="40.7770872" lon="-2.9033089"/>
      <trkpt lat="40.7761860" lon="-2.9019570"/>
      <trkpt lat="40.7759500" lon="-2.9016137"/>
      <trkpt lat="40.7753062" lon="-2.9006481"/>
      <trkpt lat="40.7751775" lon="-2.9004550"/>
      <trkpt lat="40.7747912" lon="-2.8998756"/>
      <trkpt lat="40.7732677" lon="-2.8976440"/>
      <trkpt lat="40.7723022" lon="-2.8962064"/>
      <trkpt lat="40.7720447" lon="-2.8958201"/>
      <trkpt lat="40.7711649" lon="-2.8945327"/>
      <trkpt lat="40.7707787" lon="-2.8939533"/>
      <trkpt lat="40.7706070" lon="-2.8937173"/>
      <trkpt lat="40.7700276" lon="-2.8928590"/>
      <trkpt lat="40.7696199" lon="-2.8922582"/>
      <trkpt lat="40.7689548" lon="-2.8912711"/>
      <trkpt lat="40.7684183" lon="-2.8904986"/>
      <trkpt lat="40.7678175" lon="-2.8896189"/>
      <trkpt lat="40.7677531" lon="-2.8895116"/>
      <trkpt lat="40.7677531" lon="-2.8895116"/>
      <trkpt lat="40.7677531" lon="-2.8895116"/>
      <trkpt lat="40.7677531" lon="-2.8895116"/>
      <trkpt lat="40.7677531" lon="-2.8895116"/>
      <trkpt lat="40.7677531" lon="-2.8895116"/>
      <trkpt lat="40.7677531" lon="-2.8895116"/>
      <trkpt lat="40.7677531" lon="-2.8895116"/>
      <trkpt lat="40.7677531" lon="-2.8895116"/>
      <trkpt lat="40.7677531" lon="-2.8895116"/>
      <trkpt lat="40.7677531" lon="-2.8895116"/>
      <trkpt lat="40.7670879" lon="-2.8885245"/>
      <trkpt lat="40.7631826" lon="-2.8827953"/>
      <trkpt lat="40.7631826" lon="-2.8827953"/>
      <trkpt lat="40.7629895" lon="-2.8824949"/>
      <trkpt lat="40.7623672" lon="-2.8815937"/>
      <trkpt lat="40.7623672" lon="-2.8815937"/>
      <trkpt lat="40.7620883" lon="-2.8811860"/>
      <trkpt lat="40.7619166" lon="-2.8809500"/>
      <trkpt lat="40.7619166" lon="-2.8809500"/>
      <trkpt lat="40.7618308" lon="-2.8810573"/>
      <trkpt lat="40.7616806" lon="-2.8810143"/>
      <trkpt lat="40.7615948" lon="-2.8809285"/>
      <trkpt lat="40.7615948" lon="-2.8809285"/>
      <trkpt lat="40.7616162" lon="-2.8806925"/>
      <trkpt lat="40.7616162" lon="-2.8806925"/>
      <trkpt lat="40.7617664" lon="-2.8805852"/>
      <trkpt lat="40.7617664" lon="-2.8805852"/>
      <trkpt lat="40.7617664" lon="-2.8805852"/>
      <trkpt lat="40.7617664" lon="-2.8805852"/>
      <trkpt lat="40.7617664" lon="-2.8805852"/>
      <trkpt lat="40.7617664" lon="-2.8805852"/>
      <trkpt lat="40.7617664" lon="-2.8805852"/>
      <trkpt lat="40.7617664" lon="-2.8805852"/>
      <trkpt lat="40.7617664" lon="-2.8805852"/>
      <trkpt lat="40.7617664" lon="-2.8805852"/>
      <trkpt lat="40.7617664" lon="-2.8805852"/>
      <trkpt lat="40.7618737" lon="-2.8802633"/>
      <trkpt lat="40.7620025" lon="-2.8800917"/>
      <trkpt lat="40.7621098" lon="-2.8800058"/>
      <trkpt lat="40.7621098" lon="-2.8800058"/>
      <trkpt lat="40.7622170" lon="-2.8798985"/>
      <trkpt lat="40.7622170" lon="-2.8798985"/>
      <trkpt lat="40.7624102" lon="-2.8797483"/>
      <trkpt lat="40.7624102" lon="-2.8797483"/>
      <trkpt lat="40.7625818" lon="-2.8795981"/>
      <trkpt lat="40.7625818" lon="-2.8795981"/>
      <trkpt lat="40.7628822" lon="-2.8793836"/>
      <trkpt lat="40.7628822" lon="-2.8793836"/>
      <trkpt lat="40.7630539" lon="-2.8791690"/>
      <trkpt lat="40.7632685" lon="-2.8785038"/>
      <trkpt lat="40.7632685" lon="-2.8785038"/>
      <trkpt lat="40.7632685" lon="-2.8785038"/>
      <trkpt lat="40.7634616" lon="-2.8781390"/>
      <trkpt lat="40.7634616" lon="-2.8781390"/>
      <trkpt lat="40.7641912" lon="-2.8773236"/>
      <trkpt lat="40.7645130" lon="-2.8768086"/>
      <trkpt lat="40.7645130" lon="-2.8768086"/>
      <trkpt lat="40.7645130" lon="-2.8768086"/>
      <trkpt lat="40.7645130" lon="-2.8768086"/>
      <trkpt lat="40.7648289" lon="-2.8764678"/>
      <trkpt lat="40.7648289" lon="-2.8764678"/>
      <trkpt lat="40.7653284" lon="-2.8759289"/>
      <trkpt lat="40.7653284" lon="-2.8759289"/>
      <trkpt lat="40.7659721" lon="-2.8757143"/>
      <trkpt lat="40.7662725" lon="-2.8754783"/>
      <trkpt lat="40.7662725" lon="-2.8754783"/>
      <trkpt lat="40.7665730" lon="-2.8751135"/>
      <trkpt lat="40.7668090" lon="-2.8747916"/>
      <trkpt lat="40.7668948" lon="-2.8745556"/>
      <trkpt lat="40.7668948" lon="-2.8743410"/>
      <trkpt lat="40.7668304" lon="-2.8740406"/>
      <trkpt lat="40.7668304" lon="-2.8740406"/>
      <trkpt lat="40.7668304" lon="-2.8740406"/>
      <trkpt lat="40.7668304" lon="-2.8740406"/>
      <trkpt lat="40.7666160" lon="-2.8736260"/>
      <trkpt lat="40.7666160" lon="-2.8736260"/>
      <trkpt lat="40.7665086" lon="-2.8734183"/>
      <trkpt lat="40.7665086" lon="-2.8734183"/>
      <trkpt lat="40.7665086" lon="-2.8734183"/>
      <trkpt lat="40.7665086" lon="-2.8734183"/>
      <trkpt lat="40.7665086" lon="-2.8734183"/>
      <trkpt lat="40.7662511" lon="-2.8731823"/>
      <trkpt lat="40.7655859" lon="-2.8731394"/>
      <trkpt lat="40.7653284" lon="-2.8729892"/>
      <trkpt lat="40.7653284" lon="-2.8729892"/>
      <trkpt lat="40.7652211" lon="-2.8729033"/>
      <trkpt lat="40.7652211" lon="-2.8729033"/>
      <trkpt lat="40.7649851" lon="-2.8726673"/>
      <trkpt lat="40.7649851" lon="-2.8726673"/>
      <trkpt lat="40.7648134" lon="-2.8724313"/>
      <trkpt lat="40.7646632" lon="-2.8721523"/>
      <trkpt lat="40.7646203" lon="-2.8720450"/>
      <trkpt lat="40.7643628" lon="-2.8717017"/>
      <trkpt lat="40.7639551" lon="-2.8713799"/>
      <trkpt lat="40.7639551" lon="-2.8713799"/>
      <trkpt lat="40.7639551" lon="-2.8713799"/>
      <trkpt lat="40.7639551" lon="-2.8713799"/>
      <trkpt lat="40.7639551" lon="-2.8713799"/>
      <trkpt lat="40.7639551" lon="-2.8713799"/>
      <trkpt lat="40.7639551" lon="-2.8713799"/>
      <trkpt lat="40.7639551" lon="-2.8713799"/>
      <trkpt lat="40.7639551" lon="-2.8713799"/>
      <trkpt lat="40.7639551" lon="-2.8713799"/>
      <trkpt lat="40.7639551" lon="-2.8713799"/>
      <trkpt lat="40.7636547" lon="-2.8711224"/>
      <trkpt lat="40.7631612" lon="-2.8705430"/>
      <trkpt lat="40.7631612" lon="-2.8705430"/>
      <trkpt lat="40.7627749" lon="-2.8700280"/>
      <trkpt lat="40.7625604" lon="-2.8695989"/>
      <trkpt lat="40.7624316" lon="-2.8693843"/>
      <trkpt lat="40.7623672" lon="-2.8692341"/>
      <trkpt lat="40.7623243" lon="-2.8691268"/>
      <trkpt lat="40.7620668" lon="-2.8685260"/>
      <trkpt lat="40.7620668" lon="-2.8685260"/>
      <trkpt lat="40.7618523" lon="-2.8686547"/>
      <trkpt lat="40.7617021" lon="-2.8687406"/>
      <trkpt lat="40.7617021" lon="-2.8687406"/>
      <trkpt lat="40.7612944" lon="-2.8690624"/>
      <trkpt lat="40.7611871" lon="-2.8691483"/>
      <trkpt lat="40.7608652" lon="-2.8693199"/>
      <trkpt lat="40.7608652" lon="-2.8693199"/>
      <trkpt lat="40.7608652" lon="-2.8693199"/>
      <trkpt lat="40.7608652" lon="-2.8693199"/>
      <trkpt lat="40.7608652" lon="-2.8693199"/>
      <trkpt lat="40.7608652" lon="-2.8693199"/>
      <trkpt lat="40.7608652" lon="-2.8693199"/>
      <trkpt lat="40.7608652" lon="-2.8693199"/>
      <trkpt lat="40.7608652" lon="-2.8693199"/>
      <trkpt lat="40.7608652" lon="-2.8693199"/>
      <trkpt lat="40.7608652" lon="-2.8693199"/>
      <trkpt lat="40.7606721" lon="-2.8693199"/>
      <trkpt lat="40.7601786" lon="-2.8692770"/>
      <trkpt lat="40.7600284" lon="-2.8692555"/>
      <trkpt lat="40.7599425" lon="-2.8692341"/>
      <trkpt lat="40.7597065" lon="-2.8691912"/>
      <trkpt lat="40.7588696" lon="-2.8691053"/>
      <trkpt lat="40.7586336" lon="-2.8688693"/>
      <trkpt lat="40.7586336" lon="-2.8688693"/>
      <trkpt lat="40.7584405" lon="-2.8686118"/>
      <trkpt lat="40.7583547" lon="-2.8680539"/>
      <trkpt lat="40.7583547" lon="-2.8680539"/>
      <trkpt lat="40.7583332" lon="-2.8676677"/>
      <trkpt lat="40.7585263" lon="-2.8672171"/>
      <trkpt lat="40.7585263" lon="-2.8672171"/>
      <trkpt lat="40.7585263" lon="-2.8672171"/>
      <trkpt lat="40.7585263" lon="-2.8672171"/>
      <trkpt lat="40.7587262" lon="-2.8668587"/>
      <trkpt lat="40.7587262" lon="-2.8668587"/>
      <trkpt lat="40.7591486" lon="-2.8661013"/>
      <trkpt lat="40.7591486" lon="-2.8661013"/>
      <trkpt lat="40.7591486" lon="-2.8661013"/>
      <trkpt lat="40.7591486" lon="-2.8661013"/>
      <trkpt lat="40.7591486" lon="-2.8661013"/>
      <trkpt lat="40.7592344" lon="-2.8656936"/>
      <trkpt lat="40.7592344" lon="-2.8656936"/>
      <trkpt lat="40.7592773" lon="-2.8653932"/>
      <trkpt lat="40.7592773" lon="-2.8653932"/>
      <trkpt lat="40.7594061" lon="-2.8647923"/>
      <trkpt lat="40.7597709" lon="-2.8638911"/>
      <trkpt lat="40.7599211" lon="-2.8632045"/>
      <trkpt lat="40.7600284" lon="-2.8627753"/>
      <trkpt lat="40.7600284" lon="-2.8627753"/>
      <trkpt lat="40.7604575" lon="-2.8611016"/>
      <trkpt lat="40.7604575" lon="-2.8611016"/>
      <trkpt lat="40.7605004" lon="-2.8608227"/>
      <trkpt lat="40.7604790" lon="-2.8604150"/>
      <trkpt lat="40.7602000" lon="-2.8594923"/>
      <trkpt lat="40.7601357" lon="-2.8589988"/>
      <trkpt lat="40.7601357" lon="-2.8583550"/>
      <trkpt lat="40.7601357" lon="-2.8583550"/>
      <trkpt lat="40.7601357" lon="-2.8581619"/>
      <trkpt lat="40.7601571" lon="-2.8578615"/>
      <trkpt lat="40.7601571" lon="-2.8578615"/>
      <trkpt lat="40.7602000" lon="-2.8558016"/>
      <trkpt lat="40.7602429" lon="-2.8545356"/>
      <trkpt lat="40.7602429" lon="-2.8540421"/>
      <trkpt lat="40.7600713" lon="-2.8529692"/>
      <trkpt lat="40.7600713" lon="-2.8525400"/>
      <trkpt lat="40.7602429" lon="-2.8515959"/>
      <trkpt lat="40.7603502" lon="-2.8502870"/>
      <trkpt lat="40.7606936" lon="-2.8491497"/>
      <trkpt lat="40.7607150" lon="-2.8486562"/>
      <trkpt lat="40.7606077" lon="-2.8480768"/>
      <trkpt lat="40.7603931" lon="-2.8470898"/>
      <trkpt lat="40.7602429" lon="-2.8463602"/>
      <trkpt lat="40.7600927" lon="-2.8456521"/>
      <trkpt lat="40.7600498" lon="-2.8450942"/>
      <trkpt lat="40.7600498" lon="-2.8450942"/>
      <trkpt lat="40.7600498" lon="-2.8450942"/>
      <trkpt lat="40.7600498" lon="-2.8450942"/>
      <trkpt lat="40.7600644" lon="-2.8448317"/>
      <trkpt lat="40.7600644" lon="-2.8448317"/>
      <trkpt lat="40.7600713" lon="-2.8447080"/>
      <trkpt lat="40.7600713" lon="-2.8447080"/>
      <trkpt lat="40.7601786" lon="-2.8443432"/>
      <trkpt lat="40.7603288" lon="-2.8439999"/>
      <trkpt lat="40.7605433" lon="-2.8436565"/>
      <trkpt lat="40.7605433" lon="-2.8436565"/>
      <trkpt lat="40.7613373" lon="-2.8429699"/>
      <trkpt lat="40.7619810" lon="-2.8424549"/>
      <trkpt lat="40.7623243" lon="-2.8423047"/>
      <trkpt lat="40.7638907" lon="-2.8423047"/>
      <trkpt lat="40.7643628" lon="-2.8421760"/>
      <trkpt lat="40.7646632" lon="-2.8420043"/>
      <trkpt lat="40.7652640" lon="-2.8415751"/>
      <trkpt lat="40.7654357" lon="-2.8413606"/>
      <trkpt lat="40.7660580" lon="-2.8402662"/>
      <trkpt lat="40.7662725" lon="-2.8399444"/>
      <trkpt lat="40.7666802" lon="-2.8395796"/>
      <trkpt lat="40.7672381" lon="-2.8392792"/>
      <trkpt lat="40.7674098" lon="-2.8392577"/>
      <trkpt lat="40.7677317" lon="-2.8393435"/>
      <trkpt lat="40.7679033" lon="-2.8394938"/>
      <trkpt lat="40.7680321" lon="-2.8397083"/>
      <trkpt lat="40.7681179" lon="-2.8401375"/>
      <trkpt lat="40.7681823" lon="-2.8413606"/>
      <trkpt lat="40.7682467" lon="-2.8418326"/>
      <trkpt lat="40.7683325" lon="-2.8420687"/>
      <trkpt lat="40.7684398" lon="-2.8422618"/>
      <trkpt lat="40.7687402" lon="-2.8425622"/>
      <trkpt lat="40.7689548" lon="-2.8426909"/>
      <trkpt lat="40.7692552" lon="-2.8427768"/>
      <trkpt lat="40.7695127" lon="-2.8426909"/>
      <trkpt lat="40.7697272" lon="-2.8424978"/>
      <trkpt lat="40.7701349" lon="-2.8418112"/>
      <trkpt lat="40.7704782" lon="-2.8412318"/>
      <trkpt lat="40.7710576" lon="-2.8402448"/>
      <trkpt lat="40.7710576" lon="-2.8402448"/>
      <trkpt lat="40.7714868" lon="-2.8394938"/>
      <trkpt lat="40.7719588" lon="-2.8387642"/>
      <trkpt lat="40.7721949" lon="-2.8385496"/>
      <trkpt lat="40.7733321" lon="-2.8380775"/>
      <trkpt lat="40.7741046" lon="-2.8377771"/>
      <trkpt lat="40.7744050" lon="-2.8376055"/>
      <trkpt lat="40.7746625" lon="-2.8373265"/>
      <trkpt lat="40.7749200" lon="-2.8368330"/>
      <trkpt lat="40.7750487" lon="-2.8355026"/>
      <trkpt lat="40.7750916" lon="-2.8349447"/>
      <trkpt lat="40.7752204" lon="-2.8330350"/>
      <trkpt lat="40.7752848" lon="-2.8325200"/>
      <trkpt lat="40.7753491" lon="-2.8314042"/>
      <trkpt lat="40.7753491" lon="-2.8311682"/>
      <trkpt lat="40.7752204" lon="-2.8303099"/>
      <trkpt lat="40.7752633" lon="-2.8295374"/>
      <trkpt lat="40.7753706" lon="-2.8289580"/>
      <trkpt lat="40.7756710" lon="-2.8283572"/>
      <trkpt lat="40.7759500" lon="-2.8279495"/>
      <trkpt lat="40.7764649" lon="-2.8276706"/>
      <trkpt lat="40.7768941" lon="-2.8276062"/>
      <trkpt lat="40.7771945" lon="-2.8276920"/>
      <trkpt lat="40.7779455" lon="-2.8283787"/>
      <trkpt lat="40.7783318" lon="-2.8287864"/>
      <trkpt lat="40.7785678" lon="-2.8290224"/>
      <trkpt lat="40.7793617" lon="-2.8297949"/>
      <trkpt lat="40.7794690" lon="-2.8298593"/>
      <trkpt lat="40.7804561" lon="-2.8303528"/>
      <trkpt lat="40.7808638" lon="-2.8305244"/>
      <trkpt lat="40.7808638" lon="-2.8305244"/>
      <trkpt lat="40.7813144" lon="-2.8307390"/>
      <trkpt lat="40.7817650" lon="-2.8308678"/>
      <trkpt lat="40.7820439" lon="-2.8308678"/>
      <trkpt lat="40.7823229" lon="-2.8307390"/>
      <trkpt lat="40.7825160" lon="-2.8305674"/>
      <trkpt lat="40.7826018" lon="-2.8303957"/>
      <trkpt lat="40.7827735" lon="-2.8295803"/>
      <trkpt lat="40.7827735" lon="-2.8295803"/>
      <trkpt lat="40.7829452" lon="-2.8287220"/>
      <trkpt lat="40.7830310" lon="-2.8283358"/>
      <trkpt lat="40.7830310" lon="-2.8283358"/>
      <trkpt lat="40.7846832" lon="-2.8199244"/>
      <trkpt lat="40.7848120" lon="-2.8192592"/>
      <trkpt lat="40.7850051" lon="-2.8182936"/>
      <trkpt lat="40.7850051" lon="-2.8182936"/>
      <trkpt lat="40.7850051" lon="-2.8182936"/>
      <trkpt lat="40.7850051" lon="-2.8182936"/>
      <trkpt lat="40.7850051" lon="-2.8182936"/>
      <trkpt lat="40.7850051" lon="-2.8182936"/>
      <trkpt lat="40.7850051" lon="-2.8182936"/>
      <trkpt lat="40.7850051" lon="-2.8182936"/>
      <trkpt lat="40.7850051" lon="-2.8182936"/>
      <trkpt lat="40.7850051" lon="-2.8182936"/>
      <trkpt lat="40.7850051" lon="-2.8182936"/>
      <trkpt lat="40.7850695" lon="-2.8181219"/>
      <trkpt lat="40.7852626" lon="-2.8177142"/>
      <trkpt lat="40.7854557" lon="-2.8175211"/>
      <trkpt lat="40.7863355" lon="-2.8169847"/>
      <trkpt lat="40.7869148" lon="-2.8166413"/>
      <trkpt lat="40.7872367" lon="-2.8164053"/>
      <trkpt lat="40.7872367" lon="-2.8164053"/>
      <trkpt lat="40.7874084" lon="-2.8162122"/>
      <trkpt lat="40.7877946" lon="-2.8155684"/>
      <trkpt lat="40.7877946" lon="-2.8155684"/>
      <trkpt lat="40.7883310" lon="-2.8146243"/>
      <trkpt lat="40.7884812" lon="-2.8142810"/>
      <trkpt lat="40.7886100" lon="-2.8137016"/>
      <trkpt lat="40.7886529" lon="-2.8128433"/>
      <trkpt lat="40.7886958" lon="-2.8123069"/>
      <trkpt lat="40.7887816" lon="-2.8106976"/>
      <trkpt lat="40.7889104" lon="-2.8087664"/>
      <trkpt lat="40.7891035" lon="-2.8080368"/>
      <trkpt lat="40.7895970" lon="-2.8067493"/>
      <trkpt lat="40.7907772" lon="-2.8037238"/>
      <trkpt lat="40.7907772" lon="-2.8037238"/>
      <trkpt lat="40.7910132" lon="-2.8031230"/>
      <trkpt lat="40.7910132" lon="-2.8031230"/>
      <trkpt lat="40.7912493" lon="-2.8025436"/>
      <trkpt lat="40.7914209" lon="-2.8022003"/>
      <trkpt lat="40.7919788" lon="-2.8012991"/>
      <trkpt lat="40.7926226" lon="-2.8002477"/>
      <trkpt lat="40.7928371" lon="-2.7999687"/>
      <trkpt lat="40.7938242" lon="-2.7993250"/>
      <trkpt lat="40.7939744" lon="-2.7992177"/>
      <trkpt lat="40.7953477" lon="-2.7983594"/>
      <trkpt lat="40.7962060" lon="-2.7977800"/>
      <trkpt lat="40.7969141" lon="-2.7970076"/>
      <trkpt lat="40.7973433" lon="-2.7964926"/>
      <trkpt lat="40.7975578" lon="-2.7961493"/>
      <trkpt lat="40.7976866" lon="-2.7958059"/>
      <trkpt lat="40.7979012" lon="-2.7949047"/>
      <trkpt lat="40.7989955" lon="-2.7902699"/>
      <trkpt lat="40.7990813" lon="-2.7899694"/>
      <trkpt lat="40.7992101" lon="-2.7894330"/>
      <trkpt lat="40.7992101" lon="-2.7894330"/>
      <trkpt lat="40.7993174" lon="-2.7890038"/>
      <trkpt lat="40.7995105" lon="-2.7886391"/>
      <trkpt lat="40.7995105" lon="-2.7886391"/>
      <trkpt lat="40.8000255" lon="-2.7882743"/>
      <trkpt lat="40.8001971" lon="-2.7880597"/>
      <trkpt lat="40.8003902" lon="-2.7877808"/>
      <trkpt lat="40.8005619" lon="-2.7874589"/>
      <trkpt lat="40.8007550" lon="-2.7870941"/>
      <trkpt lat="40.8009911" lon="-2.7866435"/>
      <trkpt lat="40.8012915" lon="-2.7860212"/>
      <trkpt lat="40.8013988" lon="-2.7854419"/>
      <trkpt lat="40.8014631" lon="-2.7845836"/>
      <trkpt lat="40.8014202" lon="-2.7841544"/>
      <trkpt lat="40.8012700" lon="-2.7837896"/>
      <trkpt lat="40.8011627" lon="-2.7836394"/>
      <trkpt lat="40.8006048" lon="-2.7832317"/>
      <trkpt lat="40.8001113" lon="-2.7828884"/>
      <trkpt lat="40.8001113" lon="-2.7828884"/>
      <trkpt lat="40.8003259" lon="-2.7827597"/>
      <trkpt lat="40.8008623" lon="-2.7830172"/>
      <trkpt lat="40.8013344" lon="-2.7833390"/>
      <trkpt lat="40.8015704" lon="-2.7835536"/>
      <trkpt lat="40.8017850" lon="-2.7836394"/>
      <trkpt lat="40.8019567" lon="-2.7839184"/>
      <trkpt lat="40.8019567" lon="-2.7839184"/>
      <trkpt lat="40.8020639" lon="-2.7841115"/>
      <trkpt lat="40.8021927" lon="-2.7845407"/>
      <trkpt lat="40.8022356" lon="-2.7849698"/>
      <trkpt lat="40.8022356" lon="-2.7849698"/>
      <trkpt lat="40.8022571" lon="-2.7850342"/>
      <trkpt lat="40.8024287" lon="-2.7854204"/>
      <trkpt lat="40.8025360" lon="-2.7855492"/>
      <trkpt lat="40.8027935" lon="-2.7859783"/>
      <trkpt lat="40.8029008" lon="-2.7863002"/>
      <trkpt lat="40.8029008" lon="-2.7863002"/>
      <trkpt lat="40.8029008" lon="-2.7863002"/>
      <trkpt lat="40.8029008" lon="-2.7863002"/>
      <trkpt lat="40.8029008" lon="-2.7863002"/>
      <trkpt lat="40.8027935" lon="-2.7859783"/>
      <trkpt lat="40.8025360" lon="-2.7855492"/>
      <trkpt lat="40.8024287" lon="-2.7854204"/>
      <trkpt lat="40.8022571" lon="-2.7850342"/>
      <trkpt lat="40.8022356" lon="-2.7849698"/>
      <trkpt lat="40.8022356" lon="-2.7849698"/>
      <trkpt lat="40.8021927" lon="-2.7845407"/>
      <trkpt lat="40.8020639" lon="-2.7841115"/>
      <trkpt lat="40.8019567" lon="-2.7839184"/>
      <trkpt lat="40.8019567" lon="-2.7839184"/>
      <trkpt lat="40.8017850" lon="-2.7836394"/>
      <trkpt lat="40.8015704" lon="-2.7835536"/>
      <trkpt lat="40.8013344" lon="-2.7833390"/>
      <trkpt lat="40.8008623" lon="-2.7830172"/>
      <trkpt lat="40.8003259" lon="-2.7827597"/>
      <trkpt lat="40.8001113" lon="-2.7828884"/>
      <trkpt lat="40.8001113" lon="-2.7828884"/>
      <trkpt lat="40.7997894" lon="-2.7826738"/>
      <trkpt lat="40.7997894" lon="-2.7826738"/>
      <trkpt lat="40.7992959" lon="-2.7823520"/>
      <trkpt lat="40.7984591" lon="-2.7817941"/>
      <trkpt lat="40.7984591" lon="-2.7817941"/>
      <trkpt lat="40.7982445" lon="-2.7815795"/>
      <trkpt lat="40.7976007" lon="-2.7806997"/>
      <trkpt lat="40.7971931" lon="-2.7800775"/>
      <trkpt lat="40.7970858" lon="-2.7798200"/>
      <trkpt lat="40.7970428" lon="-2.7795839"/>
      <trkpt lat="40.7971072" lon="-2.7791548"/>
      <trkpt lat="40.7974505" lon="-2.7786398"/>
      <trkpt lat="40.7977295" lon="-2.7784252"/>
      <trkpt lat="40.7980299" lon="-2.7782750"/>
      <trkpt lat="40.7986307" lon="-2.7781463"/>
      <trkpt lat="40.7991886" lon="-2.7781463"/>
      <trkpt lat="40.8000898" lon="-2.7783179"/>
      <trkpt lat="40.8014846" lon="-2.7786183"/>
      <trkpt lat="40.8020639" lon="-2.7787256"/>
      <trkpt lat="40.8026433" lon="-2.7788329"/>
      <trkpt lat="40.8028793" lon="-2.7788115"/>
      <trkpt lat="40.8031583" lon="-2.7786827"/>
      <trkpt lat="40.8035016" lon="-2.7783608"/>
      <trkpt lat="40.8039522" lon="-2.7778029"/>
      <trkpt lat="40.8042312" lon="-2.7774811"/>
      <trkpt lat="40.8045101" lon="-2.7771592"/>
      <trkpt lat="40.8054972" lon="-2.7760863"/>
      <trkpt lat="40.8056903" lon="-2.7759147"/>
      <trkpt lat="40.8061409" lon="-2.7755713"/>
      <trkpt lat="40.8071494" lon="-2.7750993"/>
      <trkpt lat="40.8074713" lon="-2.7748632"/>
      <trkpt lat="40.8076215" lon="-2.7746487"/>
      <trkpt lat="40.8077717" lon="-2.7741981"/>
      <trkpt lat="40.8077717" lon="-2.7737474"/>
      <trkpt lat="40.8077288" lon="-2.7735329"/>
      <trkpt lat="40.8076000" lon="-2.7732754"/>
      <trkpt lat="40.8069134" lon="-2.7722669"/>
      <trkpt lat="40.8067203" lon="-2.7719450"/>
      <trkpt lat="40.8067203" lon="-2.7719450"/>
      <trkpt lat="40.8067203" lon="-2.7719450"/>
      <trkpt lat="40.8067203" lon="-2.7719450"/>
      <trkpt lat="40.8064434" lon="-2.7715412"/>
      <trkpt lat="40.8064434" lon="-2.7715412"/>
      <trkpt lat="40.8062053" lon="-2.7711940"/>
      <trkpt lat="40.8062053" lon="-2.7711940"/>
      <trkpt lat="40.8060336" lon="-2.7707863"/>
      <trkpt lat="40.8060336" lon="-2.7707863"/>
      <trkpt lat="40.8059907" lon="-2.7704859"/>
      <trkpt lat="40.8060122" lon="-2.7701640"/>
      <trkpt lat="40.8061194" lon="-2.7698421"/>
      <trkpt lat="40.8062911" lon="-2.7696061"/>
      <trkpt lat="40.8065486" lon="-2.7693915"/>
      <trkpt lat="40.8069992" lon="-2.7691555"/>
      <trkpt lat="40.8077931" lon="-2.7689838"/>
      <trkpt lat="40.8089304" lon="-2.7690697"/>
      <trkpt lat="40.8093381" lon="-2.7691340"/>
      <trkpt lat="40.8093381" lon="-2.7691340"/>
      <trkpt lat="40.8100247" lon="-2.7691770"/>
      <trkpt lat="40.8100247" lon="-2.7691770"/>
      <trkpt lat="40.8103251" lon="-2.7690911"/>
      <trkpt lat="40.8106470" lon="-2.7689195"/>
      <trkpt lat="40.8109689" lon="-2.7686191"/>
      <trkpt lat="40.8112693" lon="-2.7682328"/>
      <trkpt lat="40.8115911" lon="-2.7675247"/>
      <trkpt lat="40.8116984" lon="-2.7671599"/>
      <trkpt lat="40.8117414" lon="-2.7666235"/>
      <trkpt lat="40.8117414" lon="-2.7661729"/>
      <trkpt lat="40.8117414" lon="-2.7658510"/>
      <trkpt lat="40.8113551" lon="-2.7649713"/>
      <trkpt lat="40.8112049" lon="-2.7646708"/>
      <trkpt lat="40.8111620" lon="-2.7645636"/>
      <trkpt lat="40.8109689" lon="-2.7641559"/>
      <trkpt lat="40.8107543" lon="-2.7637267"/>
      <trkpt lat="40.8106899" lon="-2.7634692"/>
      <trkpt lat="40.8106899" lon="-2.7630830"/>
      <trkpt lat="40.8108616" lon="-2.7627397"/>
      <trkpt lat="40.8109689" lon="-2.7626324"/>
      <trkpt lat="40.8114409" lon="-2.7623749"/>
      <trkpt lat="40.8120847" lon="-2.7621388"/>
      <trkpt lat="40.8123207" lon="-2.7620530"/>
      <trkpt lat="40.8128357" lon="-2.7618814"/>
      <trkpt lat="40.8132434" lon="-2.7617311"/>
      <trkpt lat="40.8132434" lon="-2.7617311"/>
      <trkpt lat="40.8137584" lon="-2.7614951"/>
      <trkpt lat="40.8141446" lon="-2.7610874"/>
      <trkpt lat="40.8146381" lon="-2.7601433"/>
      <trkpt lat="40.8148742" lon="-2.7595425"/>
      <trkpt lat="40.8149815" lon="-2.7591991"/>
      <trkpt lat="40.8152604" lon="-2.7581692"/>
      <trkpt lat="40.8153677" lon="-2.7577400"/>
      <trkpt lat="40.8154321" lon="-2.7573109"/>
      <trkpt lat="40.8155179" lon="-2.7559376"/>
      <trkpt lat="40.8155179" lon="-2.7559376"/>
      <trkpt lat="40.8155394" lon="-2.7544570"/>
      <trkpt lat="40.8155608" lon="-2.7536845"/>
      <trkpt lat="40.8155608" lon="-2.7531481"/>
      <trkpt lat="40.8155608" lon="-2.7523327"/>
      <trkpt lat="40.8155823" lon="-2.7510881"/>
      <trkpt lat="40.8156037" lon="-2.7499294"/>
      <trkpt lat="40.8156037" lon="-2.7489638"/>
      <trkpt lat="40.8156252" lon="-2.7477193"/>
      <trkpt lat="40.8156466" lon="-2.7468610"/>
      <trkpt lat="40.8156466" lon="-2.7457023"/>
      <trkpt lat="40.8157325" lon="-2.7367973"/>
      <trkpt lat="40.8157754" lon="-2.7337289"/>
      <trkpt lat="40.8157754" lon="-2.7330422"/>
      <trkpt lat="40.8157969" lon="-2.7318835"/>
      <trkpt lat="40.8157969" lon="-2.7307248"/>
      <trkpt lat="40.8158183" lon="-2.7295446"/>
      <trkpt lat="40.8158398" lon="-2.7287078"/>
      <trkpt lat="40.8158612" lon="-2.7276993"/>
      <trkpt lat="40.8158612" lon="-2.7270555"/>
      <trkpt lat="40.8158827" lon="-2.7267122"/>
      <trkpt lat="40.8160329" lon="-2.7256608"/>
      <trkpt lat="40.8164406" lon="-2.7242446"/>
      <trkpt lat="40.8165050" lon="-2.7240086"/>
      <trkpt lat="40.8180714" lon="-2.7187085"/>
      <trkpt lat="40.8221054" lon="-2.7050185"/>
      <trkpt lat="40.8221054" lon="-2.7050185"/>
      <trkpt lat="40.8226204" lon="-2.7033019"/>
      <trkpt lat="40.8226204" lon="-2.7033019"/>
      <trkpt lat="40.8226204" lon="-2.7033019"/>
      <trkpt lat="40.8226204" lon="-2.7033019"/>
      <trkpt lat="40.8227329" lon="-2.7028894"/>
      <trkpt lat="40.8227329" lon="-2.7028894"/>
      <trkpt lat="40.8227491" lon="-2.7028298"/>
      <trkpt lat="40.8227491" lon="-2.7028298"/>
      <trkpt lat="40.8227491" lon="-2.7028298"/>
      <trkpt lat="40.8227491" lon="-2.7028298"/>
      <trkpt lat="40.8227491" lon="-2.7028298"/>
      <trkpt lat="40.8230710" lon="-2.7017140"/>
      <trkpt lat="40.8231783" lon="-2.7013707"/>
      <trkpt lat="40.8232856" lon="-2.7009845"/>
      <trkpt lat="40.8232856" lon="-2.7009845"/>
      <trkpt lat="40.8235002" lon="-2.7002764"/>
      <trkpt lat="40.8235860" lon="-2.6999974"/>
      <trkpt lat="40.8237147" lon="-2.6993966"/>
      <trkpt lat="40.8239293" lon="-2.6986885"/>
      <trkpt lat="40.8239293" lon="-2.6986885"/>
      <trkpt lat="40.8236504" lon="-2.6984096"/>
      <trkpt lat="40.8227277" lon="-2.6976800"/>
      <trkpt lat="40.8227277" lon="-2.6976800"/>
      <trkpt lat="40.8188653" lon="-2.6952982"/>
      <trkpt lat="40.8188653" lon="-2.6952982"/>
      <trkpt lat="40.8179641" lon="-2.6947403"/>
      <trkpt lat="40.8175564" lon="-2.6944184"/>
      <trkpt lat="40.8168268" lon="-2.6936245"/>
      <trkpt lat="40.8163762" lon="-2.6928949"/>
      <trkpt lat="40.8160329" lon="-2.6922297"/>
      <trkpt lat="40.8156252" lon="-2.6912856"/>
      <trkpt lat="40.8129001" lon="-2.6852560"/>
      <trkpt lat="40.8126855" lon="-2.6848269"/>
      <trkpt lat="40.8124280" lon="-2.6842260"/>
      <trkpt lat="40.8119988" lon="-2.6832390"/>
      <trkpt lat="40.8118486" lon="-2.6826811"/>
      <trkpt lat="40.8116341" lon="-2.6813293"/>
      <trkpt lat="40.8115911" lon="-2.6810718"/>
      <trkpt lat="40.8115268" lon="-2.6805568"/>
      <trkpt lat="40.8113551" lon="-2.6795483"/>
      <trkpt lat="40.8112478" lon="-2.6788187"/>
      <trkpt lat="40.8112478" lon="-2.6788187"/>
      <trkpt lat="40.8110976" lon="-2.6775312"/>
      <trkpt lat="40.8110976" lon="-2.6775312"/>
      <trkpt lat="40.8109903" lon="-2.6769519"/>
      <trkpt lat="40.8108401" lon="-2.6765013"/>
      <trkpt lat="40.8101964" lon="-2.6756001"/>
      <trkpt lat="40.8101964" lon="-2.6756001"/>
      <trkpt lat="40.8098960" lon="-2.6752138"/>
      <trkpt lat="40.8094239" lon="-2.6746345"/>
      <trkpt lat="40.8085871" lon="-2.6735401"/>
      <trkpt lat="40.8085871" lon="-2.6735401"/>
      <trkpt lat="40.8082223" lon="-2.6730895"/>
      <trkpt lat="40.8074069" lon="-2.6720381"/>
      <trkpt lat="40.8070636" lon="-2.6717591"/>
      <trkpt lat="40.8065701" lon="-2.6714802"/>
      <trkpt lat="40.8065701" lon="-2.6714802"/>
      <trkpt lat="40.8065701" lon="-2.6714802"/>
      <trkpt lat="40.8065701" lon="-2.6714802"/>
      <trkpt lat="40.8065701" lon="-2.6714802"/>
      <trkpt lat="40.8065701" lon="-2.6714802"/>
      <trkpt lat="40.8065701" lon="-2.6714802"/>
      <trkpt lat="40.8065701" lon="-2.6714802"/>
      <trkpt lat="40.8065701" lon="-2.6714802"/>
      <trkpt lat="40.8065701" lon="-2.6714802"/>
      <trkpt lat="40.8065701" lon="-2.6714802"/>
      <trkpt lat="40.8064413" lon="-2.6714158"/>
      <trkpt lat="40.8055615" lon="-2.6709437"/>
      <trkpt lat="40.8052182" lon="-2.6706862"/>
      <trkpt lat="40.8045316" lon="-2.6699996"/>
      <trkpt lat="40.8039093" lon="-2.6690125"/>
      <trkpt lat="40.8036304" lon="-2.6683903"/>
      <trkpt lat="40.8032012" lon="-2.6669312"/>
      <trkpt lat="40.8030295" lon="-2.6663947"/>
      <trkpt lat="40.8028579" lon="-2.6657939"/>
      <trkpt lat="40.8026218" lon="-2.6651073"/>
      <trkpt lat="40.8023000" lon="-2.6644850"/>
      <trkpt lat="40.8019996" lon="-2.6640558"/>
      <trkpt lat="40.8016777" lon="-2.6637769"/>
      <trkpt lat="40.8002186" lon="-2.6630259"/>
      <trkpt lat="40.7998109" lon="-2.6627040"/>
      <trkpt lat="40.7993603" lon="-2.6620603"/>
      <trkpt lat="40.7990599" lon="-2.6613092"/>
      <trkpt lat="40.7989097" lon="-2.6607084"/>
      <trkpt lat="40.7988024" lon="-2.6601720"/>
      <trkpt lat="40.7987165" lon="-2.6594853"/>
      <trkpt lat="40.7986522" lon="-2.6589060"/>
      <trkpt lat="40.7986307" lon="-2.6585841"/>
      <trkpt lat="40.7986307" lon="-2.6581550"/>
      <trkpt lat="40.7985878" lon="-2.6571679"/>
      <trkpt lat="40.7985020" lon="-2.6563954"/>
      <trkpt lat="40.7983947" lon="-2.6558161"/>
      <trkpt lat="40.7982230" lon="-2.6552796"/>
      <trkpt lat="40.7979441" lon="-2.6546788"/>
      <trkpt lat="40.7976007" lon="-2.6539922"/>
      <trkpt lat="40.7968283" lon="-2.6523399"/>
      <trkpt lat="40.7957339" lon="-2.6500654"/>
      <trkpt lat="40.7957339" lon="-2.6500654"/>
      <trkpt lat="40.7934380" lon="-2.6452374"/>
      <trkpt lat="40.7923007" lon="-2.6428127"/>
      <trkpt lat="40.7919359" lon="-2.6420832"/>
      <trkpt lat="40.7919359" lon="-2.6420832"/>
      <trkpt lat="40.7919359" lon="-2.6420832"/>
      <trkpt lat="40.7919359" lon="-2.6420832"/>
      <trkpt lat="40.7918657" lon="-2.6419337"/>
      <trkpt lat="40.7918657" lon="-2.6419337"/>
      <trkpt lat="40.7912707" lon="-2.6406670"/>
      <trkpt lat="40.7912707" lon="-2.6406670"/>
      <trkpt lat="40.7912707" lon="-2.6406670"/>
      <trkpt lat="40.7912707" lon="-2.6406670"/>
      <trkpt lat="40.7912707" lon="-2.6406670"/>
      <trkpt lat="40.7906485" lon="-2.6393795"/>
      <trkpt lat="40.7895756" lon="-2.6371479"/>
      <trkpt lat="40.7889318" lon="-2.6357961"/>
      <trkpt lat="40.7879448" lon="-2.6336932"/>
      <trkpt lat="40.7868290" lon="-2.6313543"/>
      <trkpt lat="40.7868290" lon="-2.6313543"/>
      <trkpt lat="40.7868290" lon="-2.6313543"/>
      <trkpt lat="40.7868290" lon="-2.6313543"/>
      <trkpt lat="40.7868290" lon="-2.6313543"/>
      <trkpt lat="40.7868290" lon="-2.6313543"/>
      <trkpt lat="40.7868290" lon="-2.6313543"/>
      <trkpt lat="40.7868290" lon="-2.6313543"/>
      <trkpt lat="40.7868290" lon="-2.6313543"/>
      <trkpt lat="40.7868290" lon="-2.6313543"/>
      <trkpt lat="40.7868290" lon="-2.6313543"/>
      <trkpt lat="40.7867432" lon="-2.6311827"/>
      <trkpt lat="40.7862926" lon="-2.6302600"/>
      <trkpt lat="40.7862926" lon="-2.6302600"/>
      <trkpt lat="40.7860780" lon="-2.6297665"/>
      <trkpt lat="40.7858205" lon="-2.6292300"/>
      <trkpt lat="40.7858205" lon="-2.6292300"/>
      <trkpt lat="40.7856917" lon="-2.6290154"/>
      <trkpt lat="40.7855415" lon="-2.6287580"/>
      <trkpt lat="40.7852840" lon="-2.6283288"/>
      <trkpt lat="40.7852840" lon="-2.6283288"/>
      <trkpt lat="40.7852840" lon="-2.6283288"/>
      <trkpt lat="40.7852840" lon="-2.6283288"/>
      <trkpt lat="40.7852840" lon="-2.6283288"/>
      <trkpt lat="40.7852840" lon="-2.6283288"/>
      <trkpt lat="40.7852840" lon="-2.6283288"/>
      <trkpt lat="40.7852840" lon="-2.6283288"/>
      <trkpt lat="40.7852840" lon="-2.6283288"/>
      <trkpt lat="40.7852840" lon="-2.6283288"/>
      <trkpt lat="40.7852840" lon="-2.6283288"/>
      <trkpt lat="40.7849193" lon="-2.6277494"/>
      <trkpt lat="40.7849193" lon="-2.6277494"/>
      <trkpt lat="40.7847476" lon="-2.6275134"/>
      <trkpt lat="40.7844901" lon="-2.6271272"/>
      <trkpt lat="40.7842755" lon="-2.6268268"/>
      <trkpt lat="40.7837391" lon="-2.6260114"/>
      <trkpt lat="40.7832026" lon="-2.6249385"/>
      <trkpt lat="40.7832026" lon="-2.6249385"/>
      <trkpt lat="40.7832026" lon="-2.6249385"/>
      <trkpt lat="40.7832026" lon="-2.6249385"/>
      <trkpt lat="40.7831027" lon="-2.6247387"/>
      <trkpt lat="40.7831027" lon="-2.6247387"/>
      <trkpt lat="40.7830095" lon="-2.6245522"/>
      <trkpt lat="40.7830095" lon="-2.6245522"/>
      <trkpt lat="40.7830095" lon="-2.6245522"/>
      <trkpt lat="40.7830095" lon="-2.6245522"/>
      <trkpt lat="40.7830095" lon="-2.6245522"/>
      <trkpt lat="40.7828808" lon="-2.6243806"/>
      <trkpt lat="40.7827520" lon="-2.6242089"/>
      <trkpt lat="40.7825804" lon="-2.6240587"/>
      <trkpt lat="40.7818508" lon="-2.6232862"/>
      <trkpt lat="40.7817006" lon="-2.6230931"/>
      <trkpt lat="40.7814646" lon="-2.6228571"/>
      <trkpt lat="40.7813358" lon="-2.6227069"/>
      <trkpt lat="40.7812285" lon="-2.6226425"/>
      <trkpt lat="40.7812285" lon="-2.6226425"/>
      <trkpt lat="40.7812500" lon="-2.6223636"/>
      <trkpt lat="40.7812500" lon="-2.6223636"/>
      <trkpt lat="40.7813144" lon="-2.6221490"/>
      <trkpt lat="40.7813632" lon="-2.6219370"/>
      <trkpt lat="40.7813632" lon="-2.6219370"/>
      <trkpt lat="40.7815719" lon="-2.6210332"/>
      <trkpt lat="40.7815719" lon="-2.6210332"/>
      <trkpt lat="40.7815719" lon="-2.6210332"/>
      <trkpt lat="40.7815719" lon="-2.6210332"/>
      <trkpt lat="40.7815719" lon="-2.6210332"/>
      <trkpt lat="40.7816577" lon="-2.6206684"/>
      <trkpt lat="40.7816362" lon="-2.6202822"/>
      <trkpt lat="40.7816362" lon="-2.6202822"/>
      <trkpt lat="40.7813144" lon="-2.6196814"/>
      <trkpt lat="40.7811856" lon="-2.6194668"/>
      <trkpt lat="40.7811856" lon="-2.6194668"/>
      <trkpt lat="40.7811427" lon="-2.6193810"/>
      <trkpt lat="40.7811427" lon="-2.6193810"/>
      <trkpt lat="40.7807994" lon="-2.6188231"/>
      <trkpt lat="40.7806492" lon="-2.6187801"/>
      <trkpt lat="40.7802200" lon="-2.6189089"/>
      <trkpt lat="40.7797265" lon="-2.6184154"/>
      <trkpt lat="40.7795119" lon="-2.6179647"/>
      <trkpt lat="40.7795119" lon="-2.6179647"/>
      <trkpt lat="40.7795119" lon="-2.6179647"/>
      <trkpt lat="40.7795119" lon="-2.6179647"/>
      <trkpt lat="40.7794958" lon="-2.6179140"/>
      <trkpt lat="40.7794958" lon="-2.6179140"/>
      <trkpt lat="40.7793617" lon="-2.6174927"/>
      <trkpt lat="40.7793617" lon="-2.6174927"/>
      <trkpt lat="40.7793617" lon="-2.6174927"/>
      <trkpt lat="40.7793617" lon="-2.6174927"/>
      <trkpt lat="40.7793617" lon="-2.6174927"/>
      <trkpt lat="40.7792974" lon="-2.6172566"/>
      <trkpt lat="40.7792115" lon="-2.6170206"/>
      <trkpt lat="40.7790828" lon="-2.6165700"/>
      <trkpt lat="40.7790184" lon="-2.6163983"/>
      <trkpt lat="40.7788682" lon="-2.6159692"/>
      <trkpt lat="40.7786536" lon="-2.6156044"/>
      <trkpt lat="40.7783103" lon="-2.6151752"/>
      <trkpt lat="40.7779455" lon="-2.6147032"/>
      <trkpt lat="40.7776237" lon="-2.6141667"/>
      <trkpt lat="40.7774305" lon="-2.6137590"/>
      <trkpt lat="40.7774305" lon="-2.6137590"/>
      <trkpt lat="40.7774305" lon="-2.6137590"/>
      <trkpt lat="40.7767868" lon="-2.6122141"/>
      <trkpt lat="40.7764649" lon="-2.6104760"/>
      <trkpt lat="40.7762289" lon="-2.6096821"/>
      <trkpt lat="40.7758212" lon="-2.6088667"/>
      <trkpt lat="40.7748342" lon="-2.6073217"/>
      <trkpt lat="40.7744908" lon="-2.6065922"/>
      <trkpt lat="40.7743192" lon="-2.6060987"/>
      <trkpt lat="40.7743192" lon="-2.6060987"/>
      <trkpt lat="40.7740188" lon="-2.6050258"/>
      <trkpt lat="40.7740188" lon="-2.6050258"/>
      <trkpt lat="40.7738686" lon="-2.6044893"/>
      <trkpt lat="40.7736754" lon="-2.6037598"/>
      <trkpt lat="40.7725167" lon="-2.5992966"/>
      <trkpt lat="40.7723665" lon="-2.5987387"/>
      <trkpt lat="40.7718301" lon="-2.5966144"/>
      <trkpt lat="40.7718086" lon="-2.5965071"/>
      <trkpt lat="40.7716799" lon="-2.5954771"/>
      <trkpt lat="40.7716370" lon="-2.5945973"/>
      <trkpt lat="40.7716155" lon="-2.5942326"/>
      <trkpt lat="40.7715940" lon="-2.5935030"/>
      <trkpt lat="40.7712507" lon="-2.5852847"/>
      <trkpt lat="40.7712293" lon="-2.5844049"/>
      <trkpt lat="40.7712293" lon="-2.5844049"/>
      <trkpt lat="40.7712078" lon="-2.5838900"/>
      <trkpt lat="40.7711649" lon="-2.5829029"/>
      <trkpt lat="40.7711434" lon="-2.5825596"/>
      <trkpt lat="40.7711434" lon="-2.5822377"/>
      <trkpt lat="40.7711220" lon="-2.5820231"/>
      <trkpt lat="40.7711005" lon="-2.5812078"/>
      <trkpt lat="40.7711005" lon="-2.5812078"/>
      <trkpt lat="40.7710791" lon="-2.5805855"/>
      <trkpt lat="40.7710791" lon="-2.5805855"/>
      <trkpt lat="40.7709718" lon="-2.5781393"/>
      <trkpt lat="40.7709074" lon="-2.5763154"/>
      <trkpt lat="40.7708859" lon="-2.5758862"/>
      <trkpt lat="40.7708859" lon="-2.5758862"/>
      <trkpt lat="40.7708216" lon="-2.5745988"/>
      <trkpt lat="40.7706285" lon="-2.5737834"/>
      <trkpt lat="40.7700920" lon="-2.5725174"/>
      <trkpt lat="40.7699203" lon="-2.5717020"/>
      <trkpt lat="40.7698989" lon="-2.5709939"/>
      <trkpt lat="40.7700491" lon="-2.5694489"/>
      <trkpt lat="40.7698989" lon="-2.5678182"/>
      <trkpt lat="40.7699633" lon="-2.5671530"/>
      <trkpt lat="40.7701993" lon="-2.5665736"/>
      <trkpt lat="40.7701993" lon="-2.5665736"/>
      <trkpt lat="40.7707357" lon="-2.5658870"/>
      <trkpt lat="40.7714438" lon="-2.5650930"/>
      <trkpt lat="40.7721090" lon="-2.5639987"/>
      <trkpt lat="40.7724309" lon="-2.5631404"/>
      <trkpt lat="40.7728386" lon="-2.5617886"/>
      <trkpt lat="40.7728386" lon="-2.5617886"/>
      <trkpt lat="40.7730103" lon="-2.5611877"/>
      <trkpt lat="40.7731819" lon="-2.5606298"/>
      <trkpt lat="40.7734394" lon="-2.5597715"/>
      <trkpt lat="40.7738471" lon="-2.5583124"/>
      <trkpt lat="40.7739973" lon="-2.5575829"/>
      <trkpt lat="40.7740402" lon="-2.5563598"/>
      <trkpt lat="40.7740402" lon="-2.5563598"/>
      <trkpt lat="40.7740402" lon="-2.5544500"/>
      <trkpt lat="40.7741475" lon="-2.5538278"/>
      <trkpt lat="40.7743192" lon="-2.5534201"/>
      <trkpt lat="40.7745981" lon="-2.5529695"/>
      <trkpt lat="40.7750058" lon="-2.5526047"/>
      <trkpt lat="40.7762504" lon="-2.5520039"/>
      <trkpt lat="40.7762504" lon="-2.5520039"/>
      <trkpt lat="40.7765293" lon="-2.5518966"/>
      <trkpt lat="40.7775593" lon="-2.5514460"/>
      <trkpt lat="40.7781601" lon="-2.5510597"/>
      <trkpt lat="40.7785034" lon="-2.5506949"/>
      <trkpt lat="40.7796836" lon="-2.5492573"/>
      <trkpt lat="40.7799625" lon="-2.5489783"/>
      <trkpt lat="40.7803059" lon="-2.5487423"/>
      <trkpt lat="40.7808638" lon="-2.5485921"/>
      <trkpt lat="40.7808638" lon="-2.5485921"/>
      <trkpt lat="40.7813787" lon="-2.5485063"/>
      <trkpt lat="40.7817650" lon="-2.5482702"/>
      <trkpt lat="40.7820225" lon="-2.5479484"/>
      <trkpt lat="40.7825160" lon="-2.5468969"/>
      <trkpt lat="40.7827091" lon="-2.5467038"/>
      <trkpt lat="40.7830524" lon="-2.5464463"/>
      <trkpt lat="40.7832670" lon="-2.5462961"/>
      <trkpt lat="40.7834172" lon="-2.5461459"/>
      <trkpt lat="40.7836103" lon="-2.5458026"/>
      <trkpt lat="40.7837605" lon="-2.5453520"/>
      <trkpt lat="40.7837605" lon="-2.5453520"/>
      <trkpt lat="40.7839537" lon="-2.5440431"/>
      <trkpt lat="40.7839966" lon="-2.5435495"/>
      <trkpt lat="40.7839966" lon="-2.5431848"/>
      <trkpt lat="40.7838249" lon="-2.5424981"/>
      <trkpt lat="40.7836103" lon="-2.5420904"/>
      <trkpt lat="40.7829452" lon="-2.5412536"/>
      <trkpt lat="40.7829452" lon="-2.5412536"/>
      <trkpt lat="40.7827091" lon="-2.5408244"/>
      <trkpt lat="40.7823658" lon="-2.5400734"/>
      <trkpt lat="40.7823658" lon="-2.5400734"/>
      <trkpt lat="40.7819581" lon="-2.5390005"/>
      <trkpt lat="40.7819581" lon="-2.5390005"/>
      <trkpt lat="40.7816148" lon="-2.5380135"/>
      <trkpt lat="40.7814860" lon="-2.5373268"/>
      <trkpt lat="40.7814646" lon="-2.5366402"/>
      <trkpt lat="40.7815933" lon="-2.5352883"/>
      <trkpt lat="40.7816362" lon="-2.5345588"/>
      <trkpt lat="40.7815504" lon="-2.5339580"/>
      <trkpt lat="40.7812929" lon="-2.5327778"/>
      <trkpt lat="40.7812285" lon="-2.5322199"/>
      <trkpt lat="40.7812071" lon="-2.5315332"/>
      <trkpt lat="40.7812929" lon="-2.5302243"/>
      <trkpt lat="40.7812071" lon="-2.5296664"/>
      <trkpt lat="40.7809496" lon="-2.5289369"/>
      <trkpt lat="40.7809496" lon="-2.5289369"/>
      <trkpt lat="40.7809496" lon="-2.5289369"/>
      <trkpt lat="40.7809496" lon="-2.5289369"/>
      <trkpt lat="40.7809496" lon="-2.5289369"/>
      <trkpt lat="40.7809496" lon="-2.5289369"/>
      <trkpt lat="40.7809496" lon="-2.5289369"/>
      <trkpt lat="40.7809496" lon="-2.5289369"/>
      <trkpt lat="40.7809496" lon="-2.5289369"/>
      <trkpt lat="40.7809496" lon="-2.5289369"/>
      <trkpt lat="40.7809496" lon="-2.5289369"/>
      <trkpt lat="40.7805848" lon="-2.5279498"/>
      <trkpt lat="40.7804775" lon="-2.5273919"/>
      <trkpt lat="40.7805419" lon="-2.5267696"/>
      <trkpt lat="40.7806706" lon="-2.5265121"/>
      <trkpt lat="40.7808852" lon="-2.5261903"/>
      <trkpt lat="40.7812071" lon="-2.5259542"/>
      <trkpt lat="40.7815504" lon="-2.5258899"/>
      <trkpt lat="40.7818723" lon="-2.5259328"/>
      <trkpt lat="40.7825589" lon="-2.5262117"/>
      <trkpt lat="40.7830310" lon="-2.5262117"/>
      <trkpt lat="40.7833529" lon="-2.5260830"/>
      <trkpt lat="40.7835674" lon="-2.5258899"/>
      <trkpt lat="40.7839108" lon="-2.5254178"/>
      <trkpt lat="40.7839108" lon="-2.5254178"/>
      <trkpt lat="40.7842112" lon="-2.5247526"/>
      <trkpt lat="40.7844472" lon="-2.5243878"/>
      <trkpt lat="40.7847691" lon="-2.5240445"/>
      <trkpt lat="40.7847691" lon="-2.5240445"/>
      <trkpt lat="40.7859278" lon="-2.5232077"/>
      <trkpt lat="40.7862496" lon="-2.5228429"/>
      <trkpt lat="40.7868075" lon="-2.5220704"/>
      <trkpt lat="40.7873440" lon="-2.5214911"/>
      <trkpt lat="40.7883096" lon="-2.5208044"/>
      <trkpt lat="40.7886529" lon="-2.5205469"/>
      <trkpt lat="40.7886529" lon="-2.5205469"/>
      <trkpt lat="40.7890606" lon="-2.5202680"/>
      <trkpt lat="40.7897472" lon="-2.5197530"/>
      <trkpt lat="40.7914639" lon="-2.5185299"/>
      <trkpt lat="40.7947683" lon="-2.5161266"/>
      <trkpt lat="40.7963777" lon="-2.5149679"/>
      <trkpt lat="40.7975578" lon="-2.5141096"/>
      <trkpt lat="40.7994676" lon="-2.5127363"/>
      <trkpt lat="40.8002400" lon="-2.5121784"/>
      <trkpt lat="40.8002400" lon="-2.5121784"/>
      <trkpt lat="40.8006907" lon="-2.5118566"/>
      <trkpt lat="40.8006907" lon="-2.5118566"/>
      <trkpt lat="40.8011198" lon="-2.5115347"/>
      <trkpt lat="40.8011198" lon="-2.5115347"/>
      <trkpt lat="40.8016992" lon="-2.5110841"/>
      <trkpt lat="40.8020210" lon="-2.5107408"/>
      <trkpt lat="40.8020210" lon="-2.5107408"/>
      <trkpt lat="40.8022785" lon="-2.5104403"/>
      <trkpt lat="40.8022785" lon="-2.5104403"/>
      <trkpt lat="40.8024931" lon="-2.5101399"/>
      <trkpt lat="40.8024931" lon="-2.5101399"/>
      <trkpt lat="40.8027506" lon="-2.5098395"/>
      <trkpt lat="40.8027506" lon="-2.5098395"/>
      <trkpt lat="40.8029008" lon="-2.5096250"/>
      <trkpt lat="40.8030510" lon="-2.5094533"/>
      <trkpt lat="40.8033514" lon="-2.5090671"/>
      <trkpt lat="40.8046389" lon="-2.5075006"/>
      <trkpt lat="40.8048105" lon="-2.5073075"/>
      <trkpt lat="40.8052826" lon="-2.5068140"/>
      <trkpt lat="40.8056903" lon="-2.5063848"/>
      <trkpt lat="40.8061409" lon="-2.5058055"/>
      <trkpt lat="40.8065057" lon="-2.5051832"/>
      <trkpt lat="40.8068705" lon="-2.5043035"/>
      <trkpt lat="40.8068705" lon="-2.5043035"/>
      <trkpt lat="40.8069992" lon="-2.5040030"/>
      <trkpt lat="40.8072352" lon="-2.5033379"/>
      <trkpt lat="40.8075356" lon="-2.5026727"/>
      <trkpt lat="40.8076215" lon="-2.5025225"/>
      <trkpt lat="40.8083940" lon="-2.5015783"/>
      <trkpt lat="40.8086944" lon="-2.5012350"/>
      <trkpt lat="40.8088446" lon="-2.5010633"/>
      <trkpt lat="40.8095527" lon="-2.5002480"/>
      <trkpt lat="40.8095527" lon="-2.5002480"/>
      <trkpt lat="40.8100462" lon="-2.4996901"/>
      <trkpt lat="40.8104539" lon="-2.4992180"/>
      <trkpt lat="40.8104539" lon="-2.4992180"/>
      <trkpt lat="40.8107114" lon="-2.4989176"/>
      <trkpt lat="40.8113551" lon="-2.4981666"/>
      <trkpt lat="40.8113551" lon="-2.4981666"/>
      <trkpt lat="40.8115911" lon="-2.4979091"/>
      <trkpt lat="40.8115911" lon="-2.4979091"/>
      <trkpt lat="40.8137798" lon="-2.4955273"/>
      <trkpt lat="40.8142734" lon="-2.4949694"/>
      <trkpt lat="40.8151960" lon="-2.4939609"/>
      <trkpt lat="40.8167624" lon="-2.4921799"/>
      <trkpt lat="40.8167624" lon="-2.4921799"/>
      <trkpt lat="40.8183718" lon="-2.4900985"/>
      <trkpt lat="40.8200669" lon="-2.4879098"/>
      <trkpt lat="40.8214831" lon="-2.4860859"/>
      <trkpt lat="40.8216763" lon="-2.4858284"/>
      <trkpt lat="40.8216763" lon="-2.4858284"/>
      <trkpt lat="40.8227706" lon="-2.4843907"/>
      <trkpt lat="40.8231997" lon="-2.4837041"/>
      <trkpt lat="40.8234572" lon="-2.4831247"/>
      <trkpt lat="40.8237576" lon="-2.4822450"/>
      <trkpt lat="40.8241439" lon="-2.4802065"/>
      <trkpt lat="40.8243370" lon="-2.4794769"/>
      <trkpt lat="40.8254957" lon="-2.4763870"/>
      <trkpt lat="40.8257532" lon="-2.4757004"/>
      <trkpt lat="40.8258820" lon="-2.4753571"/>
      <trkpt lat="40.8260107" lon="-2.4750781"/>
      <trkpt lat="40.8262253" lon="-2.4744987"/>
      <trkpt lat="40.8262253" lon="-2.4744987"/>
      <trkpt lat="40.8267188" lon="-2.4733400"/>
      <trkpt lat="40.8271265" lon="-2.4726105"/>
      <trkpt lat="40.8275342" lon="-2.4718809"/>
      <trkpt lat="40.8278346" lon="-2.4712157"/>
      <trkpt lat="40.8280492" lon="-2.4704647"/>
      <trkpt lat="40.8281350" lon="-2.4698210"/>
      <trkpt lat="40.8281565" lon="-2.4690700"/>
      <trkpt lat="40.8280277" lon="-2.4680829"/>
      <trkpt lat="40.8275557" lon="-2.4662590"/>
      <trkpt lat="40.8274269" lon="-2.4653792"/>
      <trkpt lat="40.8274484" lon="-2.4649072"/>
      <trkpt lat="40.8275127" lon="-2.4645638"/>
      <trkpt lat="40.8277488" lon="-2.4639845"/>
      <trkpt lat="40.8280277" lon="-2.4636197"/>
      <trkpt lat="40.8284354" lon="-2.4632549"/>
      <trkpt lat="40.8284354" lon="-2.4632549"/>
      <trkpt lat="40.8289719" lon="-2.4629545"/>
      <trkpt lat="40.8292937" lon="-2.4627829"/>
      <trkpt lat="40.8296371" lon="-2.4625897"/>
      <trkpt lat="40.8300877" lon="-2.4623537"/>
      <trkpt lat="40.8305812" lon="-2.4620962"/>
      <trkpt lat="40.8305812" lon="-2.4620962"/>
      <trkpt lat="40.8317614" lon="-2.4614310"/>
      <trkpt lat="40.8321476" lon="-2.4611735"/>
      <trkpt lat="40.8327699" lon="-2.4605083"/>
      <trkpt lat="40.8332205" lon="-2.4597788"/>
      <trkpt lat="40.8339715" lon="-2.4580193"/>
      <trkpt lat="40.8347011" lon="-2.4563241"/>
      <trkpt lat="40.8347011" lon="-2.4563241"/>
      <trkpt lat="40.8351302" lon="-2.4553585"/>
      <trkpt lat="40.8351302" lon="-2.4553585"/>
      <trkpt lat="40.8351302" lon="-2.4553585"/>
      <trkpt lat="40.8351302" lon="-2.4553585"/>
      <trkpt lat="40.8355404" lon="-2.4543702"/>
      <trkpt lat="40.8355404" lon="-2.4543702"/>
      <trkpt lat="40.8356023" lon="-2.4542212"/>
      <trkpt lat="40.8356023" lon="-2.4542212"/>
      <trkpt lat="40.8356023" lon="-2.4542212"/>
      <trkpt lat="40.8356023" lon="-2.4542212"/>
      <trkpt lat="40.8356023" lon="-2.4542212"/>
      <trkpt lat="40.8360529" lon="-2.4530625"/>
      <trkpt lat="40.8363962" lon="-2.4520111"/>
      <trkpt lat="40.8366108" lon="-2.4511957"/>
      <trkpt lat="40.8369327" lon="-2.4492645"/>
      <trkpt lat="40.8376408" lon="-2.4436426"/>
      <trkpt lat="40.8376408" lon="-2.4436426"/>
      <trkpt lat="40.8378339" lon="-2.4419904"/>
      <trkpt lat="40.8380055" lon="-2.4405742"/>
      <trkpt lat="40.8386707" lon="-2.4351025"/>
      <trkpt lat="40.8386707" lon="-2.4351025"/>
      <trkpt lat="40.8360314" lon="-2.4281073"/>
      <trkpt lat="40.8355379" lon="-2.4265194"/>
      <trkpt lat="40.8343148" lon="-2.4225283"/>
      <trkpt lat="40.8343148" lon="-2.4225283"/>
      <trkpt lat="40.8342290" lon="-2.4222279"/>
      <trkpt lat="40.8342290" lon="-2.4222279"/>
      <trkpt lat="40.8339715" lon="-2.4214339"/>
      <trkpt lat="40.8338642" lon="-2.4211335"/>
      <trkpt lat="40.8338642" lon="-2.4211335"/>
      <trkpt lat="40.8335638" lon="-2.4203825"/>
      <trkpt lat="40.8335638" lon="-2.4203825"/>
      <trkpt lat="40.8335638" lon="-2.4203825"/>
      <trkpt lat="40.8335638" lon="-2.4203825"/>
      <trkpt lat="40.8335148" lon="-2.4202356"/>
      <trkpt lat="40.833519380539656" lon="-2.420198684558272">
        <time>2022-05-06T15:15:46Z</time>
      </trkpt>
      <trkpt lat="40.844508893787861" lon="-2.406955026090145">
        <time>2022-05-06T15:16:00Z</time>
      </trkpt>
      <trkpt lat="40.866727558895946" lon="-2.36718432046473">
        <time>2022-05-06T15:16:04Z</time>
      </trkpt>
      <trkpt lat="40.907528400421143" lon="-2.302815914154053">
        <time>2022-05-06T15:16:07Z</time>
      </trkpt>
      <trkpt lat="40.91059684753418" lon="-2.296206951141357">
        <time>2022-05-06T15:16:19Z</time>
      </trkpt>
      <trkpt lat="40.900392215698957" lon="-2.244721027091146">
        <time>2022-05-10T11:49:27Z</time>
      </trkpt>
      <trkpt lat="40.934977289289236" lon="-2.200307166203857">
        <time>2022-05-10T11:49:30Z</time>
      </trkpt>
      <trkpt lat="40.981195606291294" lon="-2.191424360498786">
        <time>2022-05-10T11:49:33Z</time>
      </trkpt>
      <trkpt lat="41.000247001647949" lon="-2.159392833709717">
        <time>2022-05-10T11:44:43Z</time>
      </trkpt>
      <trkpt lat="40.970571041107178" lon="-2.131733894348145">
        <time>2022-05-10T11:44:51Z</time>
      </trkpt>
      <trkpt lat="40.855426238849759" lon="-1.91215418279171">
        <time>2022-05-10T11:45:12Z</time>
      </trkpt>
      <trkpt lat="40.847652778029442" lon="-1.891280561685562">
        <time>2022-05-15T07:32:25Z</time>
      </trkpt>
      <trkpt lat="40.844893455505371" lon="-1.891429424285889">
        <time>2022-05-15T07:32:28Z</time>
      </trkpt>
      <trkpt lat="40.845588315278292" lon="-1.892890054732561">
        <time>2022-05-15T07:32:30Z</time>
      </trkpt>
      <trkpt lat="40.851030349731445" lon="-1.917178630828857">
        <time>2022-05-15T07:32:33Z</time>
      </trkpt>
      <trkpt lat="40.831304797902703" lon="-1.960130352526903">
        <time>2022-05-15T07:32:40Z</time>
      </trkpt>
      <trkpt lat="40.841830288991332" lon="-1.9816420879215">
        <time>2022-05-10T11:45:49Z</time>
      </trkpt>
      <trkpt lat="40.841825846582651" lon="-1.981636639684439">
        <time>2022-05-06T15:38:44Z</time>
      </trkpt>
      <trkpt lat="40.843304246664047" lon="-1.977243265137076">
        <time>2022-05-15T07:34:05Z</time>
      </trkpt>
      <trkpt lat="40.86577545851469" lon="-2.016568975523114">
        <time>2022-05-15T07:35:16Z</time>
      </trkpt>
      <trkpt lat="40.869073150679469" lon="-2.058822233229876">
        <time>2022-05-15T07:35:18Z</time>
      </trkpt>
      <trkpt lat="40.841063344851136" lon="-2.086304817348719">
        <time>2022-05-15T07:35:20Z</time>
      </trkpt>
      <trkpt lat="40.80671539530158" lon="-2.140025272965431">
        <time>2022-05-15T07:35:23Z</time>
      </trkpt>
      <trkpt lat="40.762045383453369" lon="-2.200033664703369">
        <time>2022-05-06T15:38:50Z</time>
      </trkpt>
      <trkpt lat="40.678334645926952" lon="-2.251612627878785">
        <time>2022-05-06T15:39:08Z</time>
      </trkpt>
      <trkpt lat="40.662746988236904" lon="-2.310403883457184">
        <time>2022-05-26T08:31:09Z</time>
      </trkpt>
      <trkpt lat="40.636217594146729" lon="-2.371759414672852">
        <time>2022-05-06T15:39:13Z</time>
      </trkpt>
      <trkpt lat="40.626548817381263" lon="-2.40839034318924">
        <time>2022-05-06T15:39:16Z</time>
      </trkpt>
      <trkpt lat="40.61978411860764" lon="-2.425170494243503">
        <time>2022-05-06T15:39:18Z</time>
      </trkpt>
      <trkpt lat="40.626046657562256" lon="-2.482493408024311">
        <time>2022-05-26T08:29:37Z</time>
      </trkpt>
      <trkpt lat="40.64310391433537" lon="-2.529814783483744">
        <time>2022-05-26T08:30:51Z</time>
      </trkpt>
      <trkpt lat="40.649154726415873" lon="-2.557202819734812">
        <time>2022-05-26T08:29:30Z</time>
      </trkpt>
      <trkpt lat="40.634846650063992" lon="-2.631695391610265">
        <time>2022-05-26T08:29:24Z</time>
      </trkpt>
      <trkpt lat="40.617313385009766" lon="-2.684783935546875">
        <time>2022-05-26T08:28:52Z</time>
      </trkpt>
      <trkpt lat="40.588137321174145" lon="-2.711253063753247">
        <time>2022-05-26T08:29:01Z</time>
      </trkpt>
      <trkpt lat="40.598537921905518" lon="-2.725639343261719">
        <time>2022-05-26T08:29:04Z</time>
      </trkpt>
      <trkpt lat="40.587296113371849" lon="-2.7365368232131">
        <time>2022-05-26T08:29:06Z</time>
      </trkpt>
      <trkpt lat="40.556107051670551" lon="-2.751085292547941">
        <time>2022-05-26T08:29:10Z</time>
      </trkpt>
      <trkpt lat="40.549013614654541" lon="-2.740488052368164">
        <time>2022-05-26T08:29:13Z</time>
      </trkpt>
      <trkpt lat="40.518735330551863" lon="-2.743213595822454">
        <time>2022-05-26T08:29:15Z</time>
      </trkpt>
      <trkpt lat="40.49511194229126" lon="-2.751774787902832">
        <time>2022-05-06T15:40:32Z</time>
      </trkpt>
      <trkpt lat="40.494192782789469" lon="-2.753016985952854">
        <time>2022-05-06T15:40:34Z</time>
      </trkpt>
      <trkpt lat="40.49187183380127" lon="-2.770442962646484">
        <time>2022-05-06T15:40:38Z</time>
      </trkpt>
      <trkpt lat="40.498981615528464" lon="-2.77424281463027">
        <time>2022-05-06T15:40:45Z</time>
      </trkpt>
      <trkpt lat="40.499556111171842" lon="-2.774050701409578">
        <time>2022-05-06T15:40:47Z</time>
      </trkpt>
      <trkpt lat="40.509348772466183" lon="-2.779508493840694">
        <time>2022-05-06T15:40:51Z</time>
      </trkpt>
      <trkpt lat="40.510389804840088" lon="-2.788982391357422">
        <time>2022-05-06T15:40:52Z</time>
      </trkpt>
      <trkpt lat="40.515231611207128" lon="-2.793063959106803">
        <time>2022-05-15T06:43:15Z</time>
      </trkpt>
      <trkpt lat="40.520002841949463" lon="-2.795827388763428">
        <time>2022-05-06T15:40:56Z</time>
      </trkpt>
      <trkpt lat="40.536751141771674" lon="-2.798312371596694">
        <time>2022-05-06T15:41:00Z</time>
      </trkpt>
      <trkpt lat="40.532330106943846" lon="-2.80489887110889">
        <time>2022-05-06T15:41:04Z</time>
      </trkpt>
      <trkpt lat="40.525653250515461" lon="-2.820075144991279">
        <time>2022-05-06T15:41:08Z</time>
      </trkpt>
      <trkpt lat="40.517371678724885" lon="-2.830322943627834">
        <time>2022-05-06T15:41:11Z</time>
      </trkpt>
      <trkpt lat="40.491615431383252" lon="-2.854155208915472">
        <time>2022-05-15T07:35:49Z</time>
      </trkpt>
      <trkpt lat="40.454883920028806" lon="-2.879107296466827">
        <time>2022-05-06T15:41:18Z</time>
      </trkpt>
      <trkpt lat="40.443871021270752" lon="-2.881186008453369">
        <time>2022-05-06T15:41:20Z</time>
      </trkpt>
      <trkpt lat="40.40745735168457" lon="-2.911999225616455">
        <time>2022-05-06T15:41:26Z</time>
      </trkpt>
      <trkpt lat="40.408129077404737" lon="-2.917321985587478">
        <time>2022-05-06T15:41:27Z</time>
      </trkpt>
      <trkpt lat="40.416219960898161" lon="-2.920795613899827">
        <time>2022-05-06T15:41:31Z</time>
      </trkpt>
      <trkpt lat="40.418670577928424" lon="-2.920700311660767">
        <time>2022-05-06T15:41:34Z</time>
      </trkpt>
      <trkpt lat="40.41809381917119" lon="-2.922691684216261">
        <time>2022-05-06T15:41:38Z</time>
      </trkpt>
      <trkpt lat="40.419280529022217" lon="-2.921547889709473">
        <time>2022-05-06T15:25:15Z</time>
      </trkpt>
      <trkpt lat="40.418367739766836" lon="-2.924180142581463">
        <time>2022-05-06T15:25:20Z</time>
      </trkpt>
      <trkpt lat="40.417971611022949" lon="-2.9268479347229">
        <time>2022-05-22T11:21:19Z</time>
      </trkpt>
      <trkpt lat="40.418313341215253" lon="-2.931749168783426">
        <time>2022-05-06T15:25:24Z</time>
      </trkpt>
      <trkpt lat="40.445584282279015" lon="-2.954690186306834">
        <time>2022-05-06T15:25:30Z</time>
      </trkpt>
      <trkpt lat="40.462496280670166" lon="-2.962381839752197">
        <time>2022-05-06T15:25:32Z</time>
      </trkpt>
      <trkpt lat="40.49560546875" lon="-2.998044490814209">
        <time>2022-05-06T15:26:03Z</time>
      </trkpt>
      <trkpt lat="40.505918143317103" lon="-2.985663078725338">
        <time>2022-05-06T15:26:09Z</time>
      </trkpt>
      <trkpt lat="40.507585890591145" lon="-3.002004688605666">
        <time>2022-05-06T15:26:11Z</time>
      </trkpt>
      <trkpt lat="40.519219134002924" lon="-3.014104971662164">
        <time>2022-05-06T15:26:15Z</time>
      </trkpt>
      <trkpt lat="40.526676177978516" lon="-3.014116287231445">
        <time>2022-05-06T15:26:21Z</time>
      </trkpt>
      <trkpt lat="40.528757572174072" lon="-3.012571334838867">
        <time>2022-05-06T15:26:25Z</time>
      </trkpt>
      <trkpt lat="40.536503372713923" lon="-3.018451994284987">
        <time>2022-05-06T15:26:33Z</time>
      </trkpt>
      <trkpt lat="40.535988807678223" lon="-3.018600940704346">
        <time>2022-05-06T15:26:35Z</time>
      </trkpt>
      <trkpt lat="40.535315321758389" lon="-3.019495373591781">
        <time>2022-05-06T15:26:37Z</time>
      </trkpt>
      <trkpt lat="40.535735841840506" lon="-3.02007925696671">
        <time>2022-05-06T15:26:49Z</time>
      </trkpt>
      <trkpt lat="40.536568164825439" lon="-3.020660877227783">
        <time>2022-05-06T15:26:53Z</time>
      </trkpt>
      <trkpt lat="40.563984615728259" lon="-3.052159231156111">
        <time>2022-05-06T15:27:02Z</time>
      </trkpt>
      <trkpt lat="40.570332817733288" lon="-3.055516183376312">
        <time>2022-05-06T15:27:06Z</time>
      </trkpt>
      <trkpt lat="40.571244768798351" lon="-3.058956535533071">
        <time>2022-05-06T15:27:08Z</time>
      </trkpt>
      <trkpt lat="40.570299625396729" lon="-3.062245845794678">
        <time>2022-05-06T15:27:12Z</time>
      </trkpt>
      <trkpt lat="40.572219165042043" lon="-3.068069089204073">
        <time>2022-05-06T15:27:14Z</time>
      </trkpt>
      <trkpt lat="40.575023079290986" lon="-3.075066218152642">
        <time>2022-05-06T15:27:16Z</time>
      </trkpt>
      <trkpt lat="40.579566489905119" lon="-3.078897837549448">
        <time>2022-05-06T15:27:24Z</time>
      </trkpt>
      <trkpt lat="40.580551363527775" lon="-3.078977130353451">
        <time>2022-05-06T15:27:26Z</time>
      </trkpt>
      <trkpt lat="40.586131531745195" lon="-3.090714896097779">
        <time>2022-05-06T15:27:40Z</time>
      </trkpt>
      <trkpt lat="40.614001443609595" lon="-3.126650713384152">
        <time>2022-05-06T15:27:44Z</time>
      </trkpt>
      <trkpt lat="40.616927146911621" lon="-3.151209354400635">
        <time>2022-05-06T15:27:49Z</time>
      </trkpt>
      <trkpt lat="40.618873005732894" lon="-3.155022030696273">
        <time>2022-05-06T15:27:53Z</time>
      </trkpt>
      <trkpt lat="40.621587317436934" lon="-3.157690493389964">
        <time>2022-05-06T15:27:59Z</time>
      </trkpt>
      <trkpt lat="40.622179079800844" lon="-3.158307736739516">
        <time>2022-05-06T15:28:04Z</time>
      </trkpt>
      <trkpt lat="40.62203080393374" lon="-3.159197391942143">
        <time>2022-05-06T15:28:07Z</time>
      </trkpt>
      <trkpt lat="40.624351501464844" lon="-3.196420669555664">
        <time>2022-05-06T15:28:16Z</time>
      </trkpt>
      <trkpt lat="40.624720556661487" lon="-3.19758290424943">
        <time>2022-05-06T15:28:17Z</time>
      </trkpt>
      <trkpt lat="40.624930858612061" lon="-3.198051368817687">
        <time>2022-05-06T15:28:19Z</time>
      </trkpt>
      <trkpt lat="40.624627517536283" lon="-3.198495106771588">
        <time>2022-05-06T15:28:21Z</time>
      </trkpt>
      <trkpt lat="40.623171329498291" lon="-3.199403285980225">
        <time>2022-05-06T15:28:24Z</time>
      </trkpt>
      <trkpt lat="40.621784795075655" lon="-3.200893756002188">
        <time>2022-05-06T15:28:27Z</time>
      </trkpt>
      <trkpt lat="40.620899749919772" lon="-3.203154355287552">
        <time>2022-05-06T15:28:32Z</time>
      </trkpt>
      <trkpt lat="40.620134398341179" lon="-3.204726716503501">
        <time>2022-05-06T15:28:34Z</time>
      </trkpt>
      <trkpt lat="40.618642838671803" lon="-3.22503698989749">
        <time>2022-05-06T15:28:37Z</time>
      </trkpt>
      <trkpt lat="40.624866485595703" lon="-3.247919082641602">
        <time>2022-05-06T15:28:40Z</time>
      </trkpt>
      <trkpt lat="40.643770694732666" lon="-3.324158191680908">
        <time>2022-05-06T15:28:50Z</time>
      </trkpt>
      <trkpt lat="40.67181427963078" lon="-3.357416493818164">
        <time>2022-05-06T15:28:58Z</time>
      </trkpt>
      <trkpt lat="40.695526599884033" lon="-3.40003252029419">
        <time>2022-05-06T15:29:01Z</time>
      </trkpt>
      <trkpt lat="40.704536139965057" lon="-3.42519449070096">
        <time>2022-05-06T15:29:08Z</time>
      </trkpt>
      <trkpt lat="40.707371234893799" lon="-3.425030708312988">
        <time>2022-05-22T11:15:36Z</time>
      </trkpt>
      <trkpt lat="40.704006403684616" lon="-3.41902163811028">
        <time>2022-05-06T15:29:26Z</time>
      </trkpt>
    </trkseg>
  </trk>
</gpx>
